Time,TemperatureF,DewpointF,PressureIn,WindDirection,WindDirectionDegrees,WindSpeedMPH,WindSpeedGustMPH,Humidity,HourlyPrecipIn,Conditions,Clouds,dailyrainin,SoftwareType,DateUTC
2013-04-10 00:00:00,67.1,36.2,30.06,ENE,73,0.0,0.0,32,0.00,CLR,,0.00,WeatherDisplay:10.37,2013-04-10 04:00:00,
2013-04-10 00:05:00,67.0,36.1,30.06,ENE,73,0.0,0.0,32,0.00,CLR,,0.00,WeatherDisplay:10.37,2013-04-10 04:05:00,
2013-04-10 00:06:00,67.4,35.7,30.06,ENE,73,0.0,0.0,31,0.00,CLR,,0.00,WeatherDisplay:10.37,2013-04-10 04:06:00,
2013-04-10 00:10:00,67.9,35.3,30.06,ENE,73,0.0,0.0,30,0.00,CLR,,0.00,WeatherDisplay:10.37,2013-04-10 04:10:00,
2013-04-10 00:11:00,67.7,35.1,30.06,ENE,73,0.0,0.0,30,0.00,CLR,,0.00,WeatherDisplay:10.37,2013-04-10 04:11:00,
2013-04-10 00:12:00,68.0,35.4,30.06,ENE,73,0.0,0.0,30,0.00,CLR,,0.00,WeatherDisplay:10.37,2013-04-10 04:12:00,
2013-04-10 00:15:00,68.5,35.0,30.06,ENE,73,0.0,0.0,29,0.00,CLR,,0.00,WeatherDisplay:10.37,2013-04-10 04:15:00,
2013-04-10 00:16:00,68.4,34.9,30.06,ENE,73,0.0,0.0,29,0.00,CLR,,0.00,WeatherDisplay:10.37,2013-04-10 04:16:00,
2013-04-10 00:17:00,68.1,34.6,30.06,ENE,73,0.0,0.0,29,0.00,CLR,,0.00,WeatherDisplay:10.37,2013-04-10 04:17:00,
2013-04-10 00:21:00,68.4,34.9,30.06,ENE,73,0.0,0.0,29,0.00,CLR,,0.00,WeatherDisplay:10.37,2013-04-10 04:21:00,
2013-04-10 00:22:00,68.3,34.8,30.06,ENE,73,0.0,0.0,29,0.00,CLR,,0.00,WeatherDisplay:10.37,2013-04-10 04:22:00,
2013-04-10 00:26:00,68.7,34.3,30.06,ENE,73,0.0,0.0,28,0.00,CLR,,0.00,WeatherDisplay:10.37,2013-04-10 04:26:00,
2013-04-10 00:27:00,68.5,35.0,30.06,ENE,73,0.0,0.0,29,0.00,CLR,,0.00,WeatherDisplay:10.37,2013-04-10 04:27:00,
2013-04-10 00:28:00,68.5,35.0,30.06,ENE,73,0.0,0.0,29,0.00,CLR,,0.00,WeatherDisplay:10.37,2013-04-10 04:28:00,
2013-04-10 00:31:00,68.5,34.1,30.06,ENE,73,0.0,0.0,28,0.00,CLR,,0.00,WeatherDisplay:10.37,2013-04-10 04:31:00,
2013-04-10 00:32:00,68.5,35.8,30.06,West,261,1.3,4.6,30,0.00,CLR,,0.00,WeatherDisplay:10.37,2013-04-10 04:32:00,
2013-04-10 00:33:00,68.5,35.8,30.06,West,261,0.1,4.6,30,0.00,CLR,,0.00,WeatherDisplay:10.37,2013-04-10 04:33:00,
2013-04-10 00:36:00,68.2,34.7,30.06,West,261,0.0,0.0,29,0.00,CLR,,0.00,WeatherDisplay:10.37,2013-04-10 04:36:00,
2013-04-10 00:37:00,68.5,35.0,30.06,West,261,0.0,0.0,29,0.00,CLR,,0.00,WeatherDisplay:10.37,2013-04-10 04:37:00,
2013-04-10 00:38:00,68.4,34.9,30.06,West,261,0.0,0.0,29,0.00,CLR,,0.00,WeatherDisplay:10.37,2013-04-10 04:38:00,
2013-04-10 00:41:00,68.7,34.3,30.06,West,261,0.0,0.0,28,0.00,CLR,,0.00,WeatherDisplay:10.37,2013-04-10 04:41:00,
2013-04-10 00:43:00,69.1,33.7,30.06,West,261,0.0,0.0,27,0.00,CLR,,0.00,WeatherDisplay:10.37,2013-04-10 04:43:00,
2013-04-10 00:44:00,69.1,33.7,30.06,West,261,0.0,0.0,27,0.00,CLR,,0.00,WeatherDisplay:10.37,2013-04-10 04:44:00,
2013-04-10 00:47:00,69.0,33.6,30.06,West,261,0.0,0.0,27,0.00,CLR,,0.00,WeatherDisplay:10.37,2013-04-10 04:47:00,
2013-04-10 00:48:00,69.0,33.6,30.06,West,261,0.0,0.0,27,0.00,CLR,,0.00,WeatherDisplay:10.37,2013-04-10 04:48:00,
2013-04-10 00:49:00,69.4,33.9,30.06,West,261,0.0,0.0,27,0.00,CLR,,0.00,WeatherDisplay:10.37,2013-04-10 04:49:00,
2013-04-10 00:52:00,69.1,33.7,30.06,West,261,0.0,0.0,27,0.00,CLR,,0.00,WeatherDisplay:10.37,2013-04-10 04:52:00,
2013-04-10 00:53:00,69.3,34.8,30.06,West,261,0.0,0.0,28,0.00,CLR,,0.00,WeatherDisplay:10.37,2013-04-10 04:53:00,
2013-04-10 00:54:00,69.0,34.5,30.06,West,261,0.0,0.0,28,0.00,CLR,,0.00,WeatherDisplay:10.37,2013-04-10 04:54:00,
2013-04-10 00:58:00,68.4,34.9,30.06,West,261,0.0,0.0,29,0.00,CLR,,0.00,WeatherDisplay:10.37,2013-04-10 04:58:00,
2013-04-10 00:59:00,68.2,35.6,30.06,West,261,0.0,0.0,30,0.00,CLR,,0.00,WeatherDisplay:10.37,2013-04-10 04:59:00,
2013-04-10 01:03:00,68.3,34.8,30.06,West,261,0.0,0.0,29,0.00,CLR,,0.00,WeatherDisplay:10.37,2013-04-10 05:03:00,
2013-04-10 01:04:00,68.4,34.9,30.06,West,261,0.0,0.0,29,0.00,CLR,,0.00,WeatherDisplay:10.37,2013-04-10 05:04:00,
2013-04-10 01:08:00,68.0,36.2,30.06,West,261,0.0,0.0,31,0.00,CLR,,0.00,WeatherDisplay:10.37,2013-04-10 05:08:00,
2013-04-10 01:09:00,68.1,36.3,30.06,West,261,0.0,0.0,31,0.00,CLR,,0.00,WeatherDisplay:10.37,2013-04-10 05:09:00,
2013-04-10 01:13:00,68.1,35.5,30.06,West,261,0.0,0.0,30,0.00,CLR,,0.00,WeatherDisplay:10.37,2013-04-10 05:13:00,
2013-04-10 01:14:00,68.4,35.7,30.06,West,261,0.0,0.0,30,0.00,CLR,,0.00,WeatherDisplay:10.37,2013-04-10 05:14:00,
2013-04-10 01:18:00,68.6,35.1,30.06,West,261,0.0,0.0,29,0.00,CLR,,0.00,WeatherDisplay:10.37,2013-04-10 05:18:00,
2013-04-10 01:19:00,68.7,35.1,30.06,West,261,0.0,0.0,29,0.00,CLR,,0.00,WeatherDisplay:10.37,2013-04-10 05:19:00,
2013-04-10 01:20:00,68.4,34.9,30.06,West,261,0.0,0.0,29,0.00,CLR,,0.00,WeatherDisplay:10.37,2013-04-10 05:20:00,
2013-04-10 01:23:00,67.8,36.8,30.06,West,261,0.0,0.0,32,0.00,CLR,,0.00,WeatherDisplay:10.37,2013-04-10 05:23:00,
2013-04-10 01:24:00,68.0,37.0,30.06,West,261,0.0,0.0,32,0.00,CLR,,0.00,WeatherDisplay:10.37,2013-04-10 05:24:00,
2013-04-10 01:25:00,67.7,36.8,30.06,West,261,0.0,0.0,32,0.00,CLR,,0.00,WeatherDisplay:10.37,2013-04-10 05:25:00,
2013-04-10 01:28:00,68.0,36.2,30.06,West,261,0.0,0.0,31,0.00,CLR,,0.00,WeatherDisplay:10.37,2013-04-10 05:28:00,
2013-04-10 01:29:00,68.0,36.2,30.06,West,261,0.0,0.0,31,0.00,CLR,,0.00,WeatherDisplay:10.37,2013-04-10 05:29:00,
2013-04-10 01:30:00,68.2,36.4,30.06,West,261,0.0,0.0,31,0.00,CLR,,0.00,WeatherDisplay:10.37,2013-04-10 05:30:00,
2013-04-10 01:34:00,68.5,35.0,30.06,NNE,13,0.0,0.0,29,0.00,CLR,,0.00,WeatherDisplay:10.37,2013-04-10 05:34:00,
2013-04-10 01:35:00,68.6,35.9,30.06,NNE,13,0.0,0.0,30,0.00,CLR,,0.00,WeatherDisplay:10.37,2013-04-10 05:35:00,
2013-04-10 01:39:00,68.7,35.1,30.06,NNE,13,0.0,0.0,29,0.00,CLR,,0.00,WeatherDisplay:10.37,2013-04-10 05:39:00,
2013-04-10 01:40:00,69.0,35.4,30.06,NNE,13,0.0,0.0,29,0.00,CLR,,0.00,WeatherDisplay:10.37,2013-04-10 05:40:00,
2013-04-10 01:44:00,68.5,35.8,30.06,NNE,13,0.0,0.0,30,0.00,CLR,,0.00,WeatherDisplay:10.37,2013-04-10 05:44:00,
2013-04-10 01:45:00,68.1,35.5,30.06,NNE,13,0.0,0.0,30,0.00,CLR,,0.00,WeatherDisplay:10.37,2013-04-10 05:45:00,
2013-04-10 01:49:00,67.4,36.5,30.06,NNE,13,0.0,0.0,32,0.00,CLR,,0.00,WeatherDisplay:10.37,2013-04-10 05:49:00,
2013-04-10 01:50:00,67.5,36.6,30.06,NNE,13,0.0,0.0,32,0.00,CLR,,0.00,WeatherDisplay:10.37,2013-04-10 05:50:00,
2013-04-10 01:54:00,66.5,38.0,30.06,NNE,13,0.0,0.0,35,0.00,CLR,,0.00,WeatherDisplay:10.37,2013-04-10 05:54:00,
2013-04-10 01:55:00,66.9,38.3,30.06,NNE,13,0.0,0.0,35,0.00,CLR,,0.00,WeatherDisplay:10.37,2013-04-10 05:55:00,
2013-04-10 01:59:00,67.1,38.5,30.06,NNE,13,0.0,0.0,35,0.00,CLR,,0.00,WeatherDisplay:10.37,2013-04-10 05:59:00,
2013-04-10 02:00:00,67.1,38.5,30.06,NNE,13,0.0,0.0,35,0.00,CLR,,0.00,WeatherDisplay:10.37,2013-04-10 06:00:00,
2013-04-10 02:01:00,67.0,38.4,30.06,NNE,13,0.0,0.0,35,0.00,CLR,,0.00,WeatherDisplay:10.37,2013-04-10 06:01:00,
2013-04-10 02:04:00,66.7,38.2,30.06,NNE,13,0.0,0.0,35,0.00,CLR,,0.00,WeatherDisplay:10.37,2013-04-10 06:04:00,
2013-04-10 02:05:00,67.0,38.4,30.06,NNE,13,0.0,0.0,35,0.00,CLR,,0.00,WeatherDisplay:10.37,2013-04-10 06:05:00,
2013-04-10 02:07:00,66.5,38.0,30.06,NNE,13,0.0,0.0,35,0.00,CLR,,0.00,WeatherDisplay:10.37,2013-04-10 06:07:00,
2013-04-10 02:10:00,66.7,38.2,30.06,NNE,13,0.0,0.0,35,0.00,CLR,,0.00,WeatherDisplay:10.37,2013-04-10 06:10:00,
2013-04-10 02:12:00,66.7,38.2,30.06,NNE,13,0.0,0.0,35,0.00,CLR,,0.00,WeatherDisplay:10.37,2013-04-10 06:12:00,
2013-04-10 02:15:00,66.4,37.9,30.06,NNE,13,0.0,0.0,35,0.00,CLR,,0.00,WeatherDisplay:10.37,2013-04-10 06:15:00,
2013-04-10 02:17:00,66.9,38.3,30.06,NNE,13,0.0,0.0,35,0.00,CLR,,0.00,WeatherDisplay:10.37,2013-04-10 06:17:00,
2013-04-10 02:20:00,66.9,38.3,30.06,NNE,13,0.0,0.0,35,0.00,CLR,,0.00,WeatherDisplay:10.37,2013-04-10 06:20:00,
2013-04-10 02:21:00,67.3,38.7,30.06,NNE,13,0.0,0.0,35,0.00,CLR,,0.00,WeatherDisplay:10.37,2013-04-10 06:21:00,
2013-04-10 02:23:00,66.5,38.0,30.05,NNE,13,0.0,0.0,35,0.00,CLR,,0.00,WeatherDisplay:10.37,2013-04-10 06:23:00,
2013-04-10 02:25:00,67.4,38.0,30.05,NNE,13,0.0,0.0,34,0.00,CLR,,0.00,WeatherDisplay:10.37,2013-04-10 06:25:00,
2013-04-10 02:26:00,67.5,38.1,30.05,NNE,13,0.0,0.0,34,0.00,CLR,,0.00,WeatherDisplay:10.37,2013-04-10 06:26:00,
2013-04-10 02:28:00,67.2,37.9,30.05,NNE,13,0.0,0.0,34,0.00,CLR,,0.00,WeatherDisplay:10.37,2013-04-10 06:28:00,
2013-04-10 02:30:00,67.3,37.2,30.05,NNE,13,0.0,0.0,33,0.00,CLR,,0.00,WeatherDisplay:10.37,2013-04-10 06:30:00,
2013-04-10 02:31:00,66.7,37.4,30.06,NNE,13,0.0,0.0,34,0.00,CLR,,0.00,WeatherDisplay:10.37,2013-04-10 06:31:00,
2013-04-10 02:33:00,67.0,38.4,30.06,NNE,13,0.0,0.0,35,0.00,CLR,,0.00,WeatherDisplay:10.37,2013-04-10 06:33:00,
2013-04-10 02:35:00,66.3,38.5,30.06,NNE,13,0.0,0.0,36,0.00,CLR,,0.00,WeatherDisplay:10.37,2013-04-10 06:35:00,
2013-04-10 02:37:00,66.5,39.4,30.06,NNE,13,0.0,0.0,37,0.00,CLR,,0.00,WeatherDisplay:10.37,2013-04-10 06:37:00,
2013-04-10 02:38:00,66.3,39.2,30.06,NNE,13,0.0,0.0,37,0.00,CLR,,0.00,WeatherDisplay:10.37,2013-04-10 06:38:00,
2013-04-10 02:40:00,66.3,39.2,30.05,NNE,13,0.0,0.0,37,0.00,CLR,,0.00,WeatherDisplay:10.37,2013-04-10 06:40:00,
2013-04-10 02:42:00,66.7,38.9,30.06,NNE,13,0.0,0.0,36,0.00,CLR,,0.00,WeatherDisplay:10.37,2013-04-10 06:42:00,
2013-04-10 02:43:00,67.0,39.1,30.05,NNE,13,0.0,0.0,36,0.00,CLR,,0.00,WeatherDisplay:10.37,2013-04-10 06:43:00,
2013-04-10 02:45:00,67.2,38.6,30.05,NNE,13,0.0,0.0,35,0.00,CLR,,0.00,WeatherDisplay:10.37,2013-04-10 06:45:00,
2013-04-10 02:47:00,67.3,38.0,30.06,NNE,13,0.0,0.0,34,0.00,CLR,,0.00,WeatherDisplay:10.37,2013-04-10 06:47:00,
2013-04-10 02:48:00,67.2,37.9,30.05,NNE,13,0.0,0.0,34,0.00,CLR,,0.00,WeatherDisplay:10.37,2013-04-10 06:48:00,
2013-04-10 02:49:00,67.4,38.0,30.05,NNE,13,0.0,0.0,34,0.00,CLR,,0.00,WeatherDisplay:10.37,2013-04-10 06:49:00,
2013-04-10 02:50:00,67.7,38.3,30.06,NNE,13,0.0,0.0,34,0.00,CLR,,0.00,WeatherDisplay:10.37,2013-04-10 06:50:00,
2013-04-10 02:53:00,67.3,37.2,30.05,NNE,13,0.0,0.0,33,0.00,CLR,,0.00,WeatherDisplay:10.37,2013-04-10 06:53:00,
2013-04-10 02:54:00,67.7,37.5,30.05,NNE,13,0.0,0.0,33,0.00,CLR,,0.00,WeatherDisplay:10.37,2013-04-10 06:54:00,
2013-04-10 02:56:00,67.3,37.2,30.05,NNE,13,0.0,0.0,33,0.00,CLR,,0.00,WeatherDisplay:10.37,2013-04-10 06:56:00,
2013-04-10 02:58:00,66.8,37.5,30.05,NNE,13,0.0,0.0,34,0.00,CLR,,0.00,WeatherDisplay:10.37,2013-04-10 06:58:00,
2013-04-10 02:59:00,66.9,38.3,30.05,NNE,13,0.0,0.0,35,0.00,CLR,,0.00,WeatherDisplay:10.37,2013-04-10 06:59:00,
2013-04-10 03:01:00,66.3,38.5,30.05,NNE,13,0.0,0.0,36,0.00,CLR,,0.00,WeatherDisplay:10.37,2013-04-10 07:01:00,
2013-04-10 03:04:00,66.7,38.9,30.05,NNE,13,0.0,0.0,36,0.00,CLR,,0.00,WeatherDisplay:10.37,2013-04-10 07:04:00,
2013-04-10 03:06:00,66.2,38.4,30.05,NNE,13,0.0,0.0,36,0.00,CLR,,0.00,WeatherDisplay:10.37,2013-04-10 07:06:00,
2013-04-10 03:09:00,66.4,37.9,30.05,NNE,13,0.0,0.0,35,0.00,CLR,,0.00,WeatherDisplay:10.37,2013-04-10 07:09:00,
2013-04-10 03:11:00,67.1,37.8,30.05,NNE,13,0.0,0.0,34,0.00,CLR,,0.00,WeatherDisplay:10.37,2013-04-10 07:11:00,
2013-04-10 03:14:00,67.2,37.1,30.05,NNE,25,0.8,3.5,33,0.00,CLR,,0.00,WeatherDisplay:10.37,2013-04-10 07:14:00,
2013-04-10 03:15:00,67.3,36.4,30.05,NNE,25,0.0,3.5,32,0.00,CLR,,0.00,WeatherDisplay:10.37,2013-04-10 07:15:00,
2013-04-10 03:16:00,68.0,37.0,30.05,NNE,25,0.0,0.0,32,0.00,CLR,,0.00,WeatherDisplay:10.37,2013-04-10 07:16:00,
2013-04-10 03:19:00,68.0,36.2,30.06,NNE,25,0.0,0.0,31,0.00,CLR,,0.00,WeatherDisplay:10.37,2013-04-10 07:19:00,
2013-04-10 03:20:00,68.2,36.4,30.06,NNE,25,0.0,0.0,31,0.00,CLR,,0.00,WeatherDisplay:10.37,2013-04-10 07:20:00,
2013-04-10 03:22:00,68.4,35.7,30.06,NNW,329,0.0,4.6,30,0.00,CLR,,0.00,WeatherDisplay:10.37,2013-04-10 07:22:00,
2013-04-10 03:24:00,68.4,35.7,30.06,NNW,329,0.0,0.0,30,0.00,CLR,,0.00,WeatherDisplay:10.37,2013-04-10 07:24:00,
2013-04-10 03:25:00,68.5,35.8,30.06,NNW,329,0.0,0.0,30,0.00,CLR,,0.00,WeatherDisplay:10.37,2013-04-10 07:25:00,
2013-04-10 03:28:00,68.5,35.8,30.06,NNW,343,2.0,6.9,30,0.00,CLR,,0.00,WeatherDisplay:10.37,2013-04-10 07:28:00,
2013-04-10 03:29:00,68.5,35.0,30.06,NW,312,4.8,5.8,29,0.00,CLR,,0.00,WeatherDisplay:10.37,2013-04-10 07:29:00,
2013-04-10 03:30:00,68.7,35.1,30.06,NW,313,5.3,6.9,29,0.00,CLR,,0.00,WeatherDisplay:10.37,2013-04-10 07:30:00,
2013-04-10 03:33:00,68.7,35.1,30.06,West,277,6.4,9.3,29,0.00,CLR,,0.00,WeatherDisplay:10.37,2013-04-10 07:33:00,
2013-04-10 03:34:00,68.9,34.4,30.06,NW,318,6.5,11.3,28,0.00,CLR,,0.00,WeatherDisplay:10.37,2013-04-10 07:34:00,
2013-04-10 03:35:00,69.4,34.9,30.06,NW,318,8.2,12.7,28,0.00,CLR,,0.00,WeatherDisplay:10.37,2013-04-10 07:35:00,
2013-04-10 03:38:00,69.3,33.9,30.06,NW,308,8.7,15.0,27,0.00,CLR,,0.00,WeatherDisplay:10.37,2013-04-10 07:38:00,
2013-04-10 03:39:00,69.9,33.4,30.06,NW,323,11.4,16.1,26,0.00,CLR,,0.00,WeatherDisplay:10.37,2013-04-10 07:39:00,
2013-04-10 03:40:00,70.0,33.5,30.06,NW,313,8.8,13.8,26,0.00,CLR,,0.00,WeatherDisplay:10.37,2013-04-10 07:40:00,
2013-04-10 03:41:00,69.8,32.4,30.06,NW,306,7.7,11.5,25,0.00,CLR,,0.00,WeatherDisplay:10.37,2013-04-10 07:41:00,
2013-04-10 03:43:00,70.2,33.7,30.06,NW,308,7.1,9.2,26,0.00,CLR,,0.00,WeatherDisplay:10.37,2013-04-10 07:43:00,
2013-04-10 03:44:00,70.0,33.5,30.06,NW,319,2.5,9.2,26,0.00,CLR,,0.00,WeatherDisplay:10.37,2013-04-10 07:44:00,
2013-04-10 03:45:00,69.8,33.3,30.06,NW,319,0.0,8.1,26,0.00,CLR,,0.00,WeatherDisplay:10.37,2013-04-10 07:45:00,
2013-04-10 03:47:00,69.7,34.2,30.06,NW,320,5.4,6.9,27,0.00,CLR,,0.00,WeatherDisplay:10.37,2013-04-10 07:47:00,
2013-04-10 03:49:00,69.7,34.2,30.06,NW,325,6.4,10.4,27,0.00,CLR,,0.00,WeatherDisplay:10.37,2013-04-10 07:49:00,
2013-04-10 03:50:00,69.4,34.9,30.06,WNW,298,0.9,10.4,28,0.00,CLR,,0.00,WeatherDisplay:10.37,2013-04-10 07:50:00,
2013-04-10 03:52:00,69.3,34.8,30.06,NW,322,4.8,7.1,28,0.00,CLR,,0.00,WeatherDisplay:10.37,2013-04-10 07:52:00,
2013-04-10 03:54:00,69.3,33.9,30.06,West,281,4.8,8.1,27,0.00,CLR,,0.00,WeatherDisplay:10.37,2013-04-10 07:54:00,
2013-04-10 03:55:00,69.4,33.9,30.06,WNW,284,5.4,7.8,27,0.00,CLR,,0.00,WeatherDisplay:10.37,2013-04-10 07:55:00,
2013-04-10 03:57:00,69.4,33.9,30.06,NNW,336,2.4,8.1,27,0.00,CLR,,0.00,WeatherDisplay:10.37,2013-04-10 07:57:00,
2013-04-10 03:59:00,69.5,34.0,30.06,NNW,336,4.8,8.4,27,0.00,CLR,,0.00,WeatherDisplay:10.37,2013-04-10 07:59:00,
2013-04-10 04:00:00,69.4,33.9,30.06,WNW,284,5.9,9.2,27,0.00,CLR,,0.00,WeatherDisplay:10.37,2013-04-10 08:00:00,
2013-04-10 04:01:00,69.4,33.9,30.06,WNW,292,5.1,6.9,27,0.00,CLR,,0.00,WeatherDisplay:10.37,2013-04-10 08:01:00,
2013-04-10 04:03:00,69.4,33.9,30.06,NNW,329,5.3,8.1,27,0.00,CLR,,0.00,WeatherDisplay:10.37,2013-04-10 08:03:00,
2013-04-10 04:04:00,69.5,34.9,30.06,West,281,1.7,6.9,28,0.00,CLR,,0.00,WeatherDisplay:10.37,2013-04-10 08:04:00,
2013-04-10 04:05:00,69.5,34.9,30.06,NW,305,3.3,8.6,28,0.00,CLR,,0.00,WeatherDisplay:10.37,2013-04-10 08:05:00,
2013-04-10 04:06:00,69.5,34.0,30.06,NW,308,6.9,8.1,27,0.00,CLR,,0.00,WeatherDisplay:10.37,2013-04-10 08:06:00,
2013-04-10 04:08:00,69.5,34.9,30.06,WNW,299,3.9,6.9,28,0.00,CLR,,0.00,WeatherDisplay:10.37,2013-04-10 08:08:00,
2013-04-10 04:09:00,69.4,34.9,30.06,NNW,336,4.5,8.1,28,0.00,CLR,,0.00,WeatherDisplay:10.37,2013-04-10 08:09:00,
2013-04-10 04:10:00,69.4,34.9,30.06,NW,316,4.5,8.1,28,0.00,CLR,,0.00,WeatherDisplay:10.37,2013-04-10 08:10:00,
2013-04-10 04:11:00,69.4,34.9,30.06,WNW,292,2.0,5.8,28,0.00,CLR,,0.00,WeatherDisplay:10.37,2013-04-10 08:11:00,
2013-04-10 04:13:00,69.1,35.5,30.06,NW,308,0.0,0.0,29,0.00,CLR,,0.00,WeatherDisplay:10.37,2013-04-10 08:13:00,
2013-04-10 04:14:00,69.0,35.4,30.06,NW,308,0.0,0.0,29,0.00,CLR,,0.00,WeatherDisplay:10.37,2013-04-10 08:14:00,
2013-04-10 04:15:00,69.1,35.5,30.06,NW,308,1.1,3.5,29,0.00,CLR,,0.00,WeatherDisplay:10.37,2013-04-10 08:15:00,
2013-04-10 04:17:00,69.2,35.6,30.06,NNW,330,1.4,4.6,29,0.00,CLR,,0.00,WeatherDisplay:10.37,2013-04-10 08:17:00,
2013-04-10 04:18:00,68.5,35.0,30.06,NW,306,3.8,5.8,29,0.00,CLR,,0.00,WeatherDisplay:10.37,2013-04-10 08:18:00,
2013-04-10 04:19:00,69.1,35.5,30.06,NW,306,3.9,5.8,29,0.00,CLR,,0.00,WeatherDisplay:10.37,2013-04-10 08:19:00,
2013-04-10 04:20:00,68.9,34.4,30.06,NW,319,4.7,5.8,28,0.00,CLR,,0.00,WeatherDisplay:10.37,2013-04-10 08:20:00,
2013-04-10 04:22:00,68.6,34.2,30.06,WNW,298,2.5,4.6,28,0.00,CLR,,0.00,WeatherDisplay:10.37,2013-04-10 08:22:00,
2013-04-10 04:24:00,69.3,34.8,30.06,West,280,0.0,3.5,28,0.00,CLR,,0.00,WeatherDisplay:10.37,2013-04-10 08:24:00,
2013-04-10 04:25:00,69.0,34.5,30.06,WNW,285,3.1,3.5,28,0.00,CLR,,0.00,WeatherDisplay:10.37,2013-04-10 08:25:00,
2013-04-10 04:28:00,68.7,35.1,30.06,WNW,288,0.9,6.0,29,0.00,CLR,,0.00,WeatherDisplay:10.37,2013-04-10 08:28:00,
2013-04-10 04:29:00,69.0,35.4,30.06,WSW,237,3.1,5.8,29,0.00,CLR,,0.00,WeatherDisplay:10.37,2013-04-10 08:29:00,
2013-04-10 04:30:00,69.0,35.4,30.06,WNW,302,2.7,5.8,29,0.00,CLR,,0.00,WeatherDisplay:10.37,2013-04-10 08:30:00,
2013-04-10 04:33:00,69.0,35.4,30.06,West,270,3.0,4.6,29,0.00,CLR,,0.00,WeatherDisplay:10.37,2013-04-10 08:33:00,
2013-04-10 04:34:00,68.8,35.2,30.06,WNW,299,2.5,6.8,29,0.00,CLR,,0.00,WeatherDisplay:10.37,2013-04-10 08:34:00,
2013-04-10 04:35:00,68.6,35.1,30.06,WNW,287,6.4,7.5,29,0.00,CLR,,0.00,WeatherDisplay:10.37,2013-04-10 08:35:00,
2013-04-10 04:38:00,68.8,34.3,30.06,NW,304,3.7,8.1,28,0.00,CLR,,0.00,WeatherDisplay:10.37,2013-04-10 08:38:00,
2013-04-10 04:39:00,68.7,34.3,30.06,NW,311,7.4,9.2,28,0.00,CLR,,0.00,WeatherDisplay:10.37,2013-04-10 08:39:00,
2013-04-10 04:40:00,68.6,34.2,30.06,NW,322,3.5,10.4,28,0.00,CLR,,0.00,WeatherDisplay:10.37,2013-04-10 08:40:00,
2013-04-10 04:43:00,68.8,34.3,30.06,West,271,6.7,8.1,28,0.00,CLR,,0.00,WeatherDisplay:10.37,2013-04-10 08:43:00,
2013-04-10 04:44:00,69.0,35.4,30.06,West,267,5.2,9.2,29,0.00,CLR,,0.00,WeatherDisplay:10.37,2013-04-10 08:44:00,
2013-04-10 04:45:00,68.8,35.2,30.06,NW,309,4.6,8.8,29,0.00,CLR,,0.00,WeatherDisplay:10.37,2013-04-10 08:45:00,
2013-04-10 04:48:00,68.6,35.1,30.06,NNW,333,4.8,6.9,29,0.00,CLR,,0.00,WeatherDisplay:10.37,2013-04-10 08:48:00,
2013-04-10 04:49:00,68.5,35.0,30.06,NW,309,3.1,8.8,29,0.00,CLR,,0.00,WeatherDisplay:10.37,2013-04-10 08:49:00,
2013-04-10 04:51:00,68.6,35.1,30.06,NW,315,6.6,8.6,29,0.00,CLR,,0.00,WeatherDisplay:10.37,2013-04-10 08:51:00,
2013-04-10 04:53:00,68.8,35.2,30.06,WNW,296,3.6,9.2,29,0.00,CLR,,0.00,WeatherDisplay:10.37,2013-04-10 08:53:00,
2013-04-10 04:54:00,68.9,35.3,30.06,NW,308,2.6,7.0,29,0.00,CLR,,0.00,WeatherDisplay:10.37,2013-04-10 08:54:00,
2013-04-10 04:55:00,68.7,35.1,30.06,NW,316,5.4,9.2,29,0.00,CLR,,0.00,WeatherDisplay:10.37,2013-04-10 08:55:00,
2013-04-10 04:57:00,68.8,35.2,30.06,West,271,6.0,6.9,29,0.00,CLR,,0.00,WeatherDisplay:10.37,2013-04-10 08:57:00,
2013-04-10 04:58:00,68.4,34.9,30.06,WNW,288,2.1,8.1,29,0.00,CLR,,0.00,WeatherDisplay:10.37,2013-04-10 08:58:00,
2013-04-10 04:59:00,68.6,35.1,30.06,West,281,2.2,7.2,29,0.00,CLR,,0.00,WeatherDisplay:10.37,2013-04-10 08:59:00,
2013-04-10 05:00:00,68.8,36.1,30.06,WNW,301,4.8,5.8,30,0.00,CLR,,0.00,WeatherDisplay:10.37,2013-04-10 09:00:00,
2013-04-10 05:02:00,68.7,36.0,30.06,West,274,2.1,5.8,30,0.00,CLR,,0.00,WeatherDisplay:10.37,2013-04-10 09:02:00,
2013-04-10 05:03:00,68.6,35.9,30.06,NW,306,3.9,6.9,30,0.00,CLR,,0.00,WeatherDisplay:10.37,2013-04-10 09:03:00,
2013-04-10 05:05:00,68.4,35.7,30.06,NW,306,3.2,4.8,30,0.00,CLR,,0.00,WeatherDisplay:10.37,2013-04-10 09:05:00,
2013-04-10 05:07:00,68.6,35.9,30.06,WNW,298,2.6,5.8,30,0.00,CLR,,0.00,WeatherDisplay:10.37,2013-04-10 09:07:00,
2013-04-10 05:08:00,68.4,35.7,30.06,NNW,344,2.6,6.9,30,0.00,CLR,,0.00,WeatherDisplay:10.37,2013-04-10 09:08:00,
2013-04-10 05:10:00,68.6,35.9,30.06,NNW,342,5.2,5.8,30,0.00,CLR,,0.00,WeatherDisplay:10.37,2013-04-10 09:10:00,
2013-04-10 05:12:00,68.4,35.7,30.07,NW,322,3.4,6.9,30,0.00,CLR,,0.00,WeatherDisplay:10.37,2013-04-10 09:12:00,
2013-04-10 05:13:00,68.3,35.6,30.06,NNW,337,6.0,6.9,30,0.00,CLR,,0.00,WeatherDisplay:10.37,2013-04-10 09:13:00,
2013-04-10 05:15:00,68.7,36.0,30.06,NW,304,2.5,4.6,30,0.00,CLR,,0.00,WeatherDisplay:10.37,2013-04-10 09:15:00,
2013-04-10 05:18:00,68.4,35.7,30.06,NW,316,0.4,5.9,30,0.00,CLR,,0.00,WeatherDisplay:10.37,2013-04-10 09:18:00,
2013-04-10 05:20:00,68.3,35.6,30.06,NNW,329,3.5,4.6,30,0.00,CLR,,0.00,WeatherDisplay:10.37,2013-04-10 09:20:00,
2013-04-10 05:23:00,68.4,35.7,30.06,NNW,340,0.7,3.5,30,0.00,CLR,,0.00,WeatherDisplay:10.37,2013-04-10 09:23:00,
2013-04-10 05:24:00,68.5,35.8,30.06,NNW,328,1.1,3.5,30,0.00,CLR,,0.00,WeatherDisplay:10.37,2013-04-10 09:24:00,
2013-04-10 05:25:00,68.3,35.6,30.06,NW,316,0.8,3.5,30,0.00,CLR,,0.00,WeatherDisplay:10.37,2013-04-10 09:25:00,
2013-04-10 05:28:00,68.4,35.7,30.06,North,0,4.2,5.8,30,0.00,CLR,,0.00,WeatherDisplay:10.37,2013-04-10 09:28:00,
2013-04-10 05:29:00,68.4,35.7,30.06,West,278,4.2,6.2,30,0.00,CLR,,0.00,WeatherDisplay:10.37,2013-04-10 09:29:00,
2013-04-10 05:30:00,68.2,35.6,30.06,NW,325,4.8,6.9,30,0.00,CLR,,0.00,WeatherDisplay:10.37,2013-04-10 09:30:00,
2013-04-10 05:31:00,68.4,35.7,30.06,NW,325,4.3,6.9,30,0.00,CLR,,0.00,WeatherDisplay:10.37,2013-04-10 09:31:00,
2013-04-10 05:33:00,68.2,35.6,30.06,North,352,0.4,4.6,30,0.00,CLR,,0.00,WeatherDisplay:10.37,2013-04-10 09:33:00,
2013-04-10 05:34:00,68.2,35.6,30.06,North,352,0.0,4.6,30,0.00,CLR,,0.00,WeatherDisplay:10.37,2013-04-10 09:34:00,
2013-04-10 05:36:00,68.5,35.8,30.07,North,352,0.0,0.0,30,0.00,CLR,,0.00,WeatherDisplay:10.37,2013-04-10 09:36:00,
2013-04-10 05:37:00,68.5,35.8,30.07,North,352,0.0,0.0,30,0.00,CLR,,0.00,WeatherDisplay:10.37,2013-04-10 09:37:00,
2013-04-10 05:38:00,68.3,35.6,30.07,NW,313,2.4,4.7,30,0.00,CLR,,0.00,WeatherDisplay:10.37,2013-04-10 09:38:00,
2013-04-10 05:39:00,68.5,36.7,30.07,NW,316,3.2,4.6,31,0.00,CLR,,0.00,WeatherDisplay:10.37,2013-04-10 09:39:00,
2013-04-10 05:42:00,68.4,36.6,30.07,NW,316,0.0,0.0,31,0.00,CLR,,0.00,WeatherDisplay:10.37,2013-04-10 09:42:00,
2013-04-10 05:43:00,68.0,36.2,30.07,NW,316,0.0,0.0,31,0.00,CLR,,0.00,WeatherDisplay:10.37,2013-04-10 09:43:00,
2013-04-10 05:44:00,68.3,36.5,30.07,NW,316,0.0,0.0,31,0.00,CLR,,0.00,WeatherDisplay:10.37,2013-04-10 09:44:00,
2013-04-10 05:47:00,68.5,36.7,30.07,NW,316,0.0,0.0,31,0.00,CLR,,0.00,WeatherDisplay:10.37,2013-04-10 09:47:00,
2013-04-10 05:49:00,68.3,36.5,30.08,NW,316,0.0,0.0,31,0.00,CLR,,0.00,WeatherDisplay:10.37,2013-04-10 09:49:00,
2013-04-10 05:52:00,68.0,36.2,30.08,NW,316,0.0,0.0,31,0.00,CLR,,0.00,WeatherDisplay:10.37,2013-04-10 09:52:00,
2013-04-10 05:54:00,68.4,36.6,30.07,NW,316,0.0,0.0,31,0.00,CLR,,0.00,WeatherDisplay:10.37,2013-04-10 09:54:00,
2013-04-10 05:57:00,68.1,36.3,30.07,NNW,339,0.3,3.5,31,0.00,CLR,,0.00,WeatherDisplay:10.37,2013-04-10 09:57:00,
2013-04-10 05:59:00,68.2,36.4,30.07,NNE,14,0.0,0.0,31,0.00,CLR,,0.00,WeatherDisplay:10.37,2013-04-10 09:59:00,
2013-04-10 06:00:00,68.1,36.3,30.07,NNE,14,0.0,0.0,31,0.00,CLR,,0.00,WeatherDisplay:10.37,2013-04-10 10:00:00,
2013-04-10 06:02:00,67.9,36.1,30.07,North,6,1.5,4.4,31,0.00,CLR,,0.00,WeatherDisplay:10.37,2013-04-10 10:02:00,
2013-04-10 06:03:00,68.3,36.5,30.07,NW,312,1.9,4.6,31,0.00,CLR,,0.00,WeatherDisplay:10.37,2013-04-10 10:03:00,
2013-04-10 06:04:00,68.4,36.6,30.07,NW,312,0.0,0.0,31,0.00,CLR,,0.00,WeatherDisplay:10.37,2013-04-10 10:04:00,
2013-04-10 06:05:00,68.0,36.2,30.07,NW,312,0.0,0.0,31,0.00,CLR,,0.00,WeatherDisplay:10.37,2013-04-10 10:05:00,
2013-04-10 06:07:00,67.9,36.1,30.07,NW,312,0.0,0.0,31,0.00,CLR,,0.00,WeatherDisplay:10.37,2013-04-10 10:07:00,
2013-04-10 06:08:00,68.1,37.1,30.07,NW,312,0.0,0.0,32,0.00,CLR,,0.00,WeatherDisplay:10.37,2013-04-10 10:08:00,
2013-04-10 06:09:00,67.8,36.8,30.07,NW,312,0.0,0.0,32,0.00,CLR,,0.00,WeatherDisplay:10.37,2013-04-10 10:09:00,
2013-04-10 06:11:00,68.1,37.1,30.07,NW,312,0.0,0.0,32,0.00,CLR,,0.00,WeatherDisplay:10.37,2013-04-10 10:11:00,
2013-04-10 06:12:00,67.9,36.9,30.07,NW,312,0.0,0.0,32,0.00,CLR,,0.00,WeatherDisplay:10.37,2013-04-10 10:12:00,
2013-04-10 06:13:00,67.5,36.6,30.07,NW,312,0.0,0.0,32,0.00,CLR,,0.00,WeatherDisplay:10.37,2013-04-10 10:13:00,
2013-04-10 06:14:00,67.8,36.8,30.07,NW,312,0.0,0.0,32,0.00,CLR,,0.00,WeatherDisplay:10.37,2013-04-10 10:14:00,
2013-04-10 06:16:00,67.5,36.6,30.07,NW,312,0.0,0.0,32,0.00,CLR,,0.00,WeatherDisplay:10.37,2013-04-10 10:16:00,
2013-04-10 06:18:00,67.4,35.7,30.07,NW,312,0.0,0.0,31,0.00,CLR,,0.00,WeatherDisplay:10.37,2013-04-10 10:18:00,
2013-04-10 06:19:00,67.9,36.9,30.07,NW,312,0.0,0.0,32,0.00,CLR,,0.00,WeatherDisplay:10.37,2013-04-10 10:19:00,
2013-04-10 06:22:00,67.4,37.3,30.08,NW,312,0.0,0.0,33,0.00,CLR,,0.00,WeatherDisplay:10.37,2013-04-10 10:22:00,
2013-04-10 06:23:00,67.8,36.8,30.08,NW,312,0.0,0.0,32,0.00,CLR,,0.00,WeatherDisplay:10.37,2013-04-10 10:23:00,
2013-04-10 06:24:00,68.0,37.0,30.08,NW,312,0.0,0.0,32,0.00,CLR,,0.00,WeatherDisplay:10.37,2013-04-10 10:24:00,
2013-04-10 06:27:00,67.7,36.0,30.08,NW,312,0.0,0.0,31,0.00,CLR,,0.00,WeatherDisplay:10.37,2013-04-10 10:27:00,
2013-04-10 06:28:00,68.1,36.3,30.08,NW,312,0.0,0.0,31,0.00,CLR,,0.00,WeatherDisplay:10.37,2013-04-10 10:28:00,
2013-04-10 06:29:00,68.0,36.2,30.08,NW,312,0.0,0.0,31,0.00,CLR,,0.00,WeatherDisplay:10.37,2013-04-10 10:29:00,
2013-04-10 06:32:00,68.1,36.3,30.08,NW,312,0.0,0.0,31,0.00,CLR,,0.00,WeatherDisplay:10.37,2013-04-10 10:32:00,
2013-04-10 06:33:00,67.8,36.8,30.08,NW,312,0.0,0.0,32,0.00,CLR,,0.00,WeatherDisplay:10.37,2013-04-10 10:33:00,
2013-04-10 06:34:00,67.9,36.9,30.08,NW,312,0.0,0.0,32,0.00,CLR,,0.00,WeatherDisplay:10.37,2013-04-10 10:34:00,
2013-04-10 06:37:00,67.7,36.8,30.08,NW,312,0.0,0.0,32,0.00,CLR,,0.00,WeatherDisplay:10.37,2013-04-10 10:37:00,
2013-04-10 06:38:00,67.7,37.5,30.08,NW,312,0.0,0.0,33,0.00,CLR,,0.00,WeatherDisplay:10.37,2013-04-10 10:38:00,
2013-04-10 06:39:00,67.4,37.3,30.08,NW,312,0.0,0.0,33,0.00,CLR,,0.00,WeatherDisplay:10.37,2013-04-10 10:39:00,
2013-04-10 06:42:00,67.4,36.5,30.08,NW,312,0.0,0.0,32,0.00,CLR,,0.00,WeatherDisplay:10.37,2013-04-10 10:42:00,
2013-04-10 06:43:00,67.7,36.8,30.08,NW,312,0.0,0.0,32,0.00,CLR,,0.00,WeatherDisplay:10.37,2013-04-10 10:43:00,
2013-04-10 06:44:00,67.4,36.5,30.08,NW,312,0.0,0.0,32,0.00,CLR,,0.00,WeatherDisplay:10.37,2013-04-10 10:44:00,
2013-04-10 06:47:00,67.3,37.2,30.08,NW,312,0.0,0.0,33,0.00,CLR,,0.00,WeatherDisplay:10.37,2013-04-10 10:47:00,
2013-04-10 06:48:00,67.6,37.5,30.08,NW,312,0.0,0.0,33,0.00,CLR,,0.00,WeatherDisplay:10.37,2013-04-10 10:48:00,
2013-04-10 06:49:00,67.6,37.5,30.08,NW,312,0.0,0.0,33,0.00,CLR,,0.00,WeatherDisplay:10.37,2013-04-10 10:49:00,
2013-04-10 06:53:00,67.4,36.5,30.08,NW,312,0.0,0.0,32,0.00,CLR,,0.00,WeatherDisplay:10.37,2013-04-10 10:53:00,
2013-04-10 06:54:00,67.4,37.3,30.08,NW,312,0.0,0.0,33,0.00,CLR,,0.00,WeatherDisplay:10.37,2013-04-10 10:54:00,
2013-04-10 06:55:00,67.1,37.0,30.08,NW,312,0.0,0.0,33,0.00,CLR,,0.00,WeatherDisplay:10.37,2013-04-10 10:55:00,
2013-04-10 06:58:00,67.7,37.5,30.08,NW,312,0.0,0.0,33,0.00,CLR,,0.00,WeatherDisplay:10.37,2013-04-10 10:58:00,
2013-04-10 06:59:00,67.4,37.3,30.08,NW,312,0.0,0.0,33,0.00,CLR,,0.00,WeatherDisplay:10.37,2013-04-10 10:59:00,
2013-04-10 07:00:00,67.4,37.3,30.08,NW,312,0.0,0.0,33,0.00,CLR,,0.00,WeatherDisplay:10.37,2013-04-10 11:00:00,
2013-04-10 07:23:00,67.8,36.8,30.09,North,0,0.0,0.0,32,0.00,CLR,,0.00,WeatherDisplay:10.37,2013-04-10 11:23:00,
2013-04-10 07:24:00,67.7,36.8,30.09,North,0,0.0,0.0,32,0.00,CLR,,0.00,WeatherDisplay:10.37,2013-04-10 11:24:00,
2013-04-10 07:28:00,67.8,36.8,30.09,North,0,0.0,0.0,32,0.00,CLR,,0.00,WeatherDisplay:10.37,2013-04-10 11:28:00,
2013-04-10 07:29:00,67.9,36.9,30.09,North,0,0.0,0.0,32,0.00,CLR,,0.00,WeatherDisplay:10.37,2013-04-10 11:29:00,
2013-04-10 07:33:00,68.0,37.0,30.09,North,0,0.0,0.0,32,0.00,CLR,,0.00,WeatherDisplay:10.37,2013-04-10 11:33:00,
2013-04-10 07:34:00,68.0,37.0,30.09,North,0,0.0,0.0,32,0.00,CLR,,0.00,WeatherDisplay:10.37,2013-04-10 11:34:00,
2013-04-10 07:38:00,67.8,36.8,30.09,North,0,0.0,0.0,32,0.00,CLR,,0.00,WeatherDisplay:10.37,2013-04-10 11:38:00,
2013-04-10 07:39:00,67.8,36.8,30.09,North,0,0.0,0.0,32,0.00,CLR,,0.00,WeatherDisplay:10.37,2013-04-10 11:39:00,
2013-04-10 07:44:00,67.9,36.1,30.09,North,0,0.0,0.0,31,0.00,CLR,,0.00,WeatherDisplay:10.37,2013-04-10 11:44:00,
2013-04-10 07:45:00,68.2,36.4,30.09,North,0,0.0,0.0,31,0.00,CLR,,0.00,WeatherDisplay:10.37,2013-04-10 11:45:00,
2013-04-10 07:49:00,68.4,35.7,30.09,North,0,0.0,0.0,30,0.00,CLR,,0.00,WeatherDisplay:10.37,2013-04-10 11:49:00,
2013-04-10 07:50:00,68.9,36.2,30.09,North,0,0.0,0.0,30,0.00,CLR,,0.00,WeatherDisplay:10.37,2013-04-10 11:50:00,
2013-04-10 07:54:00,69.4,35.7,30.09,North,0,0.0,0.0,29,0.00,CLR,,0.00,WeatherDisplay:10.37,2013-04-10 11:54:00,
2013-04-10 07:55:00,69.6,35.9,30.09,North,0,0.0,0.0,29,0.00,CLR,,0.00,WeatherDisplay:10.37,2013-04-10 11:55:00,
2013-04-10 07:59:00,71.0,34.4,30.09,North,0,0.0,0.0,26,0.00,CLR,,0.00,WeatherDisplay:10.37,2013-04-10 11:59:00,
2013-04-10 08:00:00,70.8,34.2,30.09,North,0,0.0,0.0,26,0.00,CLR,,0.00,WeatherDisplay:10.37,2013-04-10 12:00:00,
2013-04-10 08:04:00,72.8,32.8,30.09,North,0,0.0,0.0,23,0.00,CLR,,0.00,WeatherDisplay:10.37,2013-04-10 12:04:00,
2013-04-10 08:05:00,72.9,31.8,30.09,North,0,0.0,0.0,22,0.00,CLR,,0.00,WeatherDisplay:10.37,2013-04-10 12:05:00,
2013-04-10 08:09:00,73.3,27.2,30.09,North,0,0.0,0.0,18,0.00,CLR,,0.00,WeatherDisplay:10.37,2013-04-10 12:09:00,
2013-04-10 08:10:00,73.1,28.4,30.09,North,0,0.0,0.0,19,0.00,CLR,,0.00,WeatherDisplay:10.37,2013-04-10 12:10:00,
2013-04-10 08:14:00,71.4,32.7,30.09,North,0,0.0,0.0,24,0.00,CLR,,0.00,WeatherDisplay:10.37,2013-04-10 12:14:00,
2013-04-10 08:15:00,71.4,33.7,30.09,North,0,0.0,0.0,25,0.00,CLR,,0.00,WeatherDisplay:10.37,2013-04-10 12:15:00,
2013-04-10 08:19:00,70.4,34.8,30.09,NW,325,0.0,4.6,27,0.00,CLR,,0.00,WeatherDisplay:10.37,2013-04-10 12:19:00,
2013-04-10 08:20:00,70.1,34.5,30.09,NW,325,0.0,0.0,27,0.00,CLR,,0.00,WeatherDisplay:10.37,2013-04-10 12:20:00,
2013-04-10 08:21:00,70.2,33.7,30.09,NW,325,0.0,0.0,26,0.00,CLR,,0.00,WeatherDisplay:10.37,2013-04-10 12:21:00,
2013-04-10 08:24:00,69.7,35.1,30.10,NW,326,1.2,2.8,28,0.00,CLR,,0.00,WeatherDisplay:10.37,2013-04-10 12:24:00,
2013-04-10 08:25:00,70.1,35.5,30.10,NW,326,1.0,3.5,28,0.00,CLR,,0.00,WeatherDisplay:10.37,2013-04-10 12:25:00,
2013-04-10 08:26:00,69.7,35.1,30.09,NW,326,0.0,0.0,28,0.00,CLR,,0.00,WeatherDisplay:10.37,2013-04-10 12:26:00,
2013-04-10 08:29:00,69.8,35.2,30.09,NW,326,0.0,0.0,28,0.00,CLR,,0.00,WeatherDisplay:10.37,2013-04-10 12:29:00,
2013-04-10 08:30:00,69.9,35.3,30.09,NW,326,0.0,0.0,28,0.00,CLR,,0.00,WeatherDisplay:10.37,2013-04-10 12:30:00,
2013-04-10 08:31:00,69.4,35.7,30.09,NW,326,0.0,0.0,29,0.00,CLR,,0.00,WeatherDisplay:10.37,2013-04-10 12:31:00,
2013-04-10 08:34:00,69.8,35.2,30.09,NW,322,0.0,0.0,28,0.00,CLR,,0.00,WeatherDisplay:10.37,2013-04-10 12:34:00,
2013-04-10 08:35:00,69.5,34.0,30.09,NW,322,0.0,0.0,27,0.00,CLR,,0.00,WeatherDisplay:10.37,2013-04-10 12:35:00,
2013-04-10 08:36:00,69.5,34.9,30.10,NW,322,0.0,0.0,28,0.00,CLR,,0.00,WeatherDisplay:10.37,2013-04-10 12:36:00,
2013-04-10 08:37:00,69.4,35.7,30.10,NW,322,0.0,0.0,29,0.00,CLR,,0.00,WeatherDisplay:10.37,2013-04-10 12:37:00,
2013-04-10 08:40:00,69.4,34.9,30.10,NW,322,0.0,0.0,28,0.00,CLR,,0.00,WeatherDisplay:10.37,2013-04-10 12:40:00,
2013-04-10 08:42:00,69.4,34.9,30.10,NW,322,0.0,0.0,28,0.00,CLR,,0.00,WeatherDisplay:10.37,2013-04-10 12:42:00,
2013-04-10 08:45:00,69.6,35.0,30.10,NW,322,0.0,0.0,28,0.00,CLR,,0.00,WeatherDisplay:10.37,2013-04-10 12:45:00,
2013-04-10 08:47:00,69.5,35.8,30.10,SW,233,0.0,1.1,29,0.00,CLR,,0.00,WeatherDisplay:10.37,2013-04-10 12:47:00,
2013-04-10 08:50:00,69.7,35.1,30.10,SW,233,0.0,0.0,28,0.00,CLR,,0.00,WeatherDisplay:10.37,2013-04-10 12:50:00,
2013-04-10 08:51:00,69.8,34.3,30.10,SW,233,0.0,0.0,27,0.00,CLR,,0.00,WeatherDisplay:10.37,2013-04-10 12:51:00,
2013-04-10 08:52:00,70.5,34.9,30.10,SW,233,0.0,0.0,27,0.00,CLR,,0.00,WeatherDisplay:10.37,2013-04-10 12:52:00,
2013-04-10 08:55:00,71.2,32.5,30.10,SW,233,0.0,0.0,24,0.00,CLR,,0.00,WeatherDisplay:10.37,2013-04-10 12:55:00,
2013-04-10 08:57:00,71.8,29.7,30.10,SW,233,0.0,0.0,21,0.00,CLR,,0.00,WeatherDisplay:10.37,2013-04-10 12:57:00,
2013-04-10 09:00:00,72.3,30.1,30.10,WNW,292,0.0,0.0,21,0.00,CLR,,0.00,WeatherDisplay:10.37,2013-04-10 13:00:00,
2013-04-10 09:02:00,72.2,32.3,30.11,WNW,292,0.0,0.0,23,0.00,CLR,,0.00,WeatherDisplay:10.37,2013-04-10 13:02:00,
2013-04-10 09:05:00,71.6,32.9,30.11,WNW,292,0.0,0.0,24,0.00,CLR,,0.00,WeatherDisplay:10.37,2013-04-10 13:05:00,
2013-04-10 09:07:00,71.7,31.9,30.11,WNW,292,0.0,0.0,23,0.00,CLR,,0.00,WeatherDisplay:10.37,2013-04-10 13:07:00,
2013-04-10 09:11:00,71.7,31.9,30.11,West,275,0.0,0.0,23,0.00,CLR,,0.00,WeatherDisplay:10.37,2013-04-10 13:11:00,
2013-04-10 09:12:00,71.9,32.1,30.11,West,275,0.0,0.0,23,0.00,CLR,,0.00,WeatherDisplay:10.37,2013-04-10 13:12:00,
2013-04-10 09:16:00,71.5,31.7,30.11,WNW,301,0.5,6.9,23,0.00,CLR,,0.00,WeatherDisplay:10.37,2013-04-10 13:16:00,
2013-04-10 09:17:00,71.8,33.0,30.11,NW,305,1.8,3.5,24,0.00,CLR,,0.00,WeatherDisplay:10.37,2013-04-10 13:17:00,
2013-04-10 09:18:00,71.8,33.0,30.11,NW,305,0.0,4.6,24,0.00,CLR,,0.00,WeatherDisplay:10.37,2013-04-10 13:18:00,
2013-04-10 09:22:00,72.7,32.7,30.11,NNW,330,0.0,0.0,23,0.00,CLR,,0.00,WeatherDisplay:10.37,2013-04-10 13:22:00,
2013-04-10 09:23:00,72.5,31.5,30.11,NNW,330,0.0,0.0,22,0.00,CLR,,0.00,WeatherDisplay:10.37,2013-04-10 13:23:00,
2013-04-10 09:28:00,72.9,29.4,30.11,WNW,288,2.0,3.5,20,0.00,CLR,,0.00,WeatherDisplay:10.37,2013-04-10 13:28:00,
2013-04-10 09:33:00,72.8,30.6,30.10,NNW,336,3.5,4.6,21,0.00,CLR,,0.00,WeatherDisplay:10.37,2013-04-10 13:33:00,
2013-04-10 09:38:00,73.9,29.0,30.10,NNW,336,0.0,0.0,19,0.00,CLR,,0.00,WeatherDisplay:10.37,2013-04-10 13:38:00,
2013-04-10 09:39:00,73.8,28.9,30.10,NNW,336,0.0,0.0,19,0.00,CLR,,0.00,WeatherDisplay:10.37,2013-04-10 13:39:00,
2013-04-10 09:43:00,74.7,28.3,30.10,NW,306,0.0,0.0,18,0.00,CLR,,0.00,WeatherDisplay:10.37,2013-04-10 13:43:00,
2013-04-10 09:44:00,74.7,28.3,30.10,NW,306,0.0,0.0,18,0.00,CLR,,0.00,WeatherDisplay:10.37,2013-04-10 13:44:00,
2013-04-10 09:48:00,74.8,25.6,30.10,NW,306,0.0,0.0,16,0.00,CLR,,0.00,WeatherDisplay:10.37,2013-04-10 13:48:00,
2013-04-10 09:49:00,74.8,25.6,30.10,NW,306,0.0,0.0,16,0.00,CLR,,0.00,WeatherDisplay:10.37,2013-04-10 13:49:00,
2013-04-10 09:53:00,75.0,24.2,30.10,NW,306,0.0,0.0,15,0.00,CLR,,0.00,WeatherDisplay:10.37,2013-04-10 13:53:00,
2013-04-10 09:54:00,75.2,24.3,30.10,NW,306,0.0,0.0,15,0.00,CLR,,0.00,WeatherDisplay:10.37,2013-04-10 13:54:00,
2013-04-10 09:59:00,75.5,22.9,30.10,NW,306,0.0,0.0,14,0.00,CLR,,0.00,WeatherDisplay:10.37,2013-04-10 13:59:00,
2013-04-10 10:04:00,76.6,20.1,30.10,NW,306,0.0,0.0,12,0.00,CLR,,0.00,WeatherDisplay:10.37,2013-04-10 14:04:00,
2013-04-10 10:09:00,76.1,23.4,30.10,WSW,241,0.0,0.0,14,0.00,CLR,,0.00,WeatherDisplay:10.37,2013-04-10 14:09:00,
2013-04-10 10:10:00,75.9,21.5,30.10,NW,312,2.0,6.3,13,0.00,CLR,,0.00,WeatherDisplay:10.37,2013-04-10 14:10:00,
2013-04-10 10:14:00,75.9,23.2,30.10,NW,313,2.7,5.8,14,0.00,CLR,,0.00,WeatherDisplay:10.37,2013-04-10 14:14:00,
2013-04-10 10:15:00,75.6,23.0,30.10,West,277,1.3,5.8,14,0.00,CLR,,0.00,WeatherDisplay:10.37,2013-04-10 14:15:00,
2013-04-10 10:19:00,75.6,21.2,30.10,WSW,247,4.4,6.9,13,0.00,CLR,,0.00,WeatherDisplay:10.37,2013-04-10 14:19:00,
2013-04-10 10:20:00,76.1,21.6,30.10,West,274,5.2,8.1,13,0.00,CLR,,0.00,WeatherDisplay:10.37,2013-04-10 14:20:00,
2013-04-10 10:24:00,75.7,21.3,30.10,WNW,295,3.0,5.8,13,0.00,CLR,,0.00,WeatherDisplay:10.37,2013-04-10 14:24:00,
2013-04-10 10:25:00,75.7,23.1,30.10,NW,322,1.3,5.8,14,0.00,CLR,,0.00,WeatherDisplay:10.37,2013-04-10 14:25:00,
2013-04-10 10:26:00,75.6,24.7,30.10,WNW,294,4.2,9.2,15,0.00,CLR,,0.00,WeatherDisplay:10.37,2013-04-10 14:26:00,
2013-04-10 10:30:00,76.5,20.1,30.10,SW,223,2.2,5.8,12,0.00,CLR,,0.00,WeatherDisplay:10.37,2013-04-10 14:30:00,
2013-04-10 10:31:00,76.6,22.0,30.10,SW,223,0.0,4.6,13,0.00,CLR,,0.00,WeatherDisplay:10.37,2013-04-10 14:31:00,
2013-04-10 10:35:00,77.0,13.8,30.09,WNW,299,0.8,6.6,9,0.00,CLR,,0.00,WeatherDisplay:10.37,2013-04-10 14:35:00,
2013-04-10 10:36:00,77.3,16.4,30.10,West,280,4.8,7.3,10,0.00,CLR,,0.00,WeatherDisplay:10.37,2013-04-10 14:36:00,
2013-04-10 10:40:00,76.8,16.1,30.10,SW,233,0.0,0.0,10,0.00,CLR,,0.00,WeatherDisplay:10.37,2013-04-10 14:40:00,
2013-04-10 10:41:00,77.7,14.3,30.09,SW,233,0.0,0.0,9,0.00,CLR,,0.00,WeatherDisplay:10.37,2013-04-10 14:41:00,
2013-04-10 10:45:00,77.0,13.8,30.09,WNW,295,4.3,6.9,9,0.00,CLR,,0.00,WeatherDisplay:10.37,2013-04-10 14:45:00,
2013-04-10 10:47:00,77.7,11.6,30.09,West,277,3.9,11.3,8,0.00,CLR,,0.00,WeatherDisplay:10.37,2013-04-10 14:47:00,
2013-04-10 10:50:00,77.4,16.5,30.09,SW,216,3.8,10.4,10,0.00,CLR,,0.00,WeatherDisplay:10.37,2013-04-10 14:50:00,
2013-04-10 10:52:00,77.5,14.2,30.09,SSW,203,3.0,6.9,9,0.00,CLR,,0.00,WeatherDisplay:10.37,2013-04-10 14:52:00,
2013-04-10 10:55:00,77.8,14.4,30.09,West,271,0.0,4.6,9,0.00,CLR,,0.00,WeatherDisplay:10.37,2013-04-10 14:55:00,
2013-04-10 10:57:00,77.1,13.9,30.09,SSE,167,3.8,5.8,9,0.00,CLR,,0.00,WeatherDisplay:10.37,2013-04-10 14:57:00,
2013-04-10 11:00:00,77.9,16.9,30.09,NW,316,5.3,5.3,10,0.00,CLR,,0.00,WeatherDisplay:10.37,2013-04-10 15:00:00,
2013-04-10 11:02:00,77.5,14.2,30.09,West,277,5.5,8.6,9,0.00,CLR,,0.00,WeatherDisplay:10.37,2013-04-10 15:02:00,
2013-04-10 11:05:00,77.4,14.1,30.09,West,265,2.7,7.0,9,0.00,CLR,,0.00,WeatherDisplay:10.37,2013-04-10 15:05:00,
2013-04-10 11:07:00,77.1,11.2,30.09,WSW,241,0.1,6.9,8,0.00,CLR,,0.00,WeatherDisplay:10.37,2013-04-10 15:07:00,
2013-04-10 11:10:00,78.3,14.8,30.09,WSW,239,4.3,8.1,9,0.00,CLR,,0.00,WeatherDisplay:10.37,2013-04-10 15:10:00,
2013-04-10 11:11:00,77.4,11.4,30.09,West,280,4.6,8.1,8,0.00,CLR,,0.00,WeatherDisplay:10.37,2013-04-10 15:11:00,
2013-04-10 11:12:00,77.9,11.8,30.09,WSW,243,3.1,6.9,8,0.00,CLR,,0.00,WeatherDisplay:10.37,2013-04-10 15:12:00,
2013-04-10 11:15:00,77.2,13.9,30.09,WSW,240,2.5,6.9,9,0.00,CLR,,0.00,WeatherDisplay:10.37,2013-04-10 15:15:00,
2013-04-10 11:16:00,77.0,13.8,30.09,WNW,292,2.2,6.9,9,0.00,CLR,,0.00,WeatherDisplay:10.37,2013-04-10 15:16:00,
2013-04-10 11:17:00,77.3,14.0,30.09,WNW,292,0.1,2.3,9,0.00,CLR,,0.00,WeatherDisplay:10.37,2013-04-10 15:17:00,
2013-04-10 11:21:00,77.9,16.9,30.09,WSW,240,6.9,10.4,10,0.00,CLR,,0.00,WeatherDisplay:10.37,2013-04-10 15:21:00,
2013-04-10 11:22:00,77.7,14.3,30.09,SW,229,2.5,6.9,9,0.00,CLR,,0.00,WeatherDisplay:10.37,2013-04-10 15:22:00,
2013-04-10 11:23:00,77.7,14.3,30.09,SW,229,2.5,6.9,9,0.00,CLR,,0.00,WeatherDisplay:10.37,2013-04-10 15:23:00,
2013-04-10 11:26:00,77.2,18.6,30.09,West,278,3.1,8.1,11,0.00,CLR,,0.00,WeatherDisplay:10.37,2013-04-10 15:26:00,
2013-04-10 11:27:00,78.0,14.5,30.09,West,278,0.5,8.1,9,0.00,CLR,,0.00,WeatherDisplay:10.37,2013-04-10 15:27:00,
2013-04-10 11:28:00,77.9,14.5,30.09,West,277,3.8,4.6,9,0.00,CLR,,0.00,WeatherDisplay:10.37,2013-04-10 15:28:00,
2013-04-10 11:31:00,77.3,11.3,30.08,SW,223,1.9,6.9,8,0.00,CLR,,0.00,WeatherDisplay:10.37,2013-04-10 15:31:00,
2013-04-10 11:32:00,79.1,9.7,30.08,SW,219,4.2,9.9,7,0.00,CLR,,0.00,WeatherDisplay:10.37,2013-04-10 15:32:00,
2013-04-10 11:33:00,77.4,14.1,30.08,WNW,296,5.5,11.5,9,0.00,CLR,,0.00,WeatherDisplay:10.37,2013-04-10 15:33:00,
2013-04-10 11:36:00,79.3,9.8,30.08,South,181,2.9,8.1,7,0.00,CLR,,0.00,WeatherDisplay:10.37,2013-04-10 15:36:00,
2013-04-10 11:37:00,78.8,9.5,30.08,SW,230,2.6,8.1,7,0.00,CLR,,0.00,WeatherDisplay:10.37,2013-04-10 15:37:00,
2013-04-10 11:38:00,77.8,8.7,30.08,West,271,0.3,5.0,7,0.00,CLR,,0.00,WeatherDisplay:10.37,2013-04-10 15:38:00,
2013-04-10 11:42:00,78.0,8.9,30.08,SW,224,5.6,6.9,7,0.00,CLR,,0.00,WeatherDisplay:10.37,2013-04-10 15:42:00,
2013-04-10 11:43:00,79.3,12.8,30.08,SSW,213,3.1,7.0,8,0.00,CLR,,0.00,WeatherDisplay:10.37,2013-04-10 15:43:00,
2013-04-10 11:44:00,78.2,9.0,30.08,WSW,243,4.7,7.1,7,0.00,CLR,,0.00,WeatherDisplay:10.37,2013-04-10 15:44:00,
2013-04-10 11:47:00,79.9,13.3,30.08,West,268,6.1,9.2,8,0.00,CLR,,0.00,WeatherDisplay:10.37,2013-04-10 15:47:00,
2013-04-10 11:48:00,78.2,9.0,30.09,WSW,257,5.9,9.1,7,0.00,CLR,,0.00,WeatherDisplay:10.37,2013-04-10 15:48:00,
2013-04-10 11:49:00,78.1,8.9,30.08,WNW,298,5.6,9.2,7,0.00,CLR,,0.00,WeatherDisplay:10.37,2013-04-10 15:49:00,
2013-04-10 11:53:00,78.7,9.4,30.08,West,263,6.7,9.2,7,0.00,CLR,,0.00,WeatherDisplay:10.37,2013-04-10 15:53:00,
2013-04-10 11:54:00,79.0,9.6,30.08,NW,308,4.2,6.9,7,0.00,CLR,,0.00,WeatherDisplay:10.37,2013-04-10 15:54:00,
2013-04-10 11:58:00,79.1,12.7,30.08,SW,226,4.5,6.9,8,0.00,CLR,,0.00,WeatherDisplay:10.37,2013-04-10 15:58:00,
2013-04-10 11:59:00,78.2,9.0,30.08,WNW,289,2.9,8.1,7,0.00,CLR,,0.00,WeatherDisplay:10.37,2013-04-10 15:59:00,
2013-04-10 12:03:00,80.6,10.8,30.08,SW,223,0.7,3.4,7,0.00,CLR,,0.00,WeatherDisplay:10.37,2013-04-10 16:03:00,
2013-04-10 12:04:00,78.9,6.1,30.08,West,275,4.5,9.2,6,0.00,CLR,,0.00,WeatherDisplay:10.37,2013-04-10 16:04:00,
2013-04-10 12:05:00,78.7,9.4,30.08,WSW,239,8.3,10.4,7,0.00,CLR,,0.00,WeatherDisplay:10.37,2013-04-10 16:05:00,
2013-04-10 12:08:00,80.0,10.3,30.08,SSW,199,2.1,8.1,7,0.00,CLR,,0.00,WeatherDisplay:10.37,2013-04-10 16:08:00,
2013-04-10 12:09:00,78.9,9.5,30.08,SW,215,1.6,5.8,7,0.00,CLR,,0.00,WeatherDisplay:10.37,2013-04-10 16:09:00,
2013-04-10 12:10:00,80.0,10.3,30.08,South,189,5.6,8.1,7,0.00,CLR,,0.00,WeatherDisplay:10.37,2013-04-10 16:10:00,
2013-04-10 12:13:00,79.8,6.8,30.08,ESE,123,4.7,10.4,6,0.00,CLR,,0.00,WeatherDisplay:10.37,2013-04-10 16:13:00,
2013-04-10 12:14:00,79.4,6.5,30.08,SSE,161,7.5,8.5,6,0.00,CLR,,0.00,WeatherDisplay:10.37,2013-04-10 16:14:00,
2013-04-10 12:15:00,81.1,7.7,30.07,SW,223,3.5,9.2,6,0.00,CLR,,0.00,WeatherDisplay:10.37,2013-04-10 16:15:00,
2013-04-10 12:18:00,81.4,7.9,30.07,SW,216,5.4,11.5,6,0.00,CLR,,0.00,WeatherDisplay:10.37,2013-04-10 16:18:00,
2013-04-10 12:19:00,81.4,7.9,30.07,South,188,9.8,11.5,6,0.00,CLR,,0.00,WeatherDisplay:10.37,2013-04-10 16:19:00,
2013-04-10 12:20:00,80.3,10.6,30.07,WSW,253,7.3,9.2,7,0.00,CLR,,0.00,WeatherDisplay:10.37,2013-04-10 16:20:00,
2013-04-10 12:23:00,80.4,7.2,30.07,West,277,7.1,9.2,6,0.00,CLR,,0.00,WeatherDisplay:10.37,2013-04-10 16:23:00,
2013-04-10 12:24:00,80.1,10.4,30.07,SW,226,7.0,9.2,7,0.00,CLR,,0.00,WeatherDisplay:10.37,2013-04-10 16:24:00,
2013-04-10 12:25:00,79.2,9.8,30.07,WNW,299,4.1,6.9,7,0.00,CLR,,0.00,WeatherDisplay:10.37,2013-04-10 16:25:00,
2013-04-10 12:28:00,79.0,9.6,30.07,West,263,6.6,9.2,7,0.00,CLR,,0.00,WeatherDisplay:10.37,2013-04-10 16:28:00,
2013-04-10 12:29:00,79.5,10.0,30.07,West,277,6.8,10.0,7,0.00,CLR,,0.00,WeatherDisplay:10.37,2013-04-10 16:29:00,
2013-04-10 12:30:00,78.9,9.5,30.07,WSW,253,7.5,11.5,7,0.00,CLR,,0.00,WeatherDisplay:10.37,2013-04-10 16:30:00,
2013-04-10 12:33:00,78.7,9.4,30.06,SSW,213,6.7,9.2,7,0.00,CLR,,0.00,WeatherDisplay:10.37,2013-04-10 16:33:00,
2013-04-10 12:34:00,79.1,9.7,30.06,SW,216,5.9,8.1,7,0.00,CLR,,0.00,WeatherDisplay:10.37,2013-04-10 16:34:00,
2013-04-10 12:36:00,79.9,6.8,30.06,South,178,0.5,6.9,6,0.00,CLR,,0.00,WeatherDisplay:10.37,2013-04-10 16:36:00,
2013-04-10 12:39:00,81.9,8.3,30.06,SW,236,3.3,9.2,6,0.00,CLR,,0.00,WeatherDisplay:10.37,2013-04-10 16:39:00,
2013-04-10 12:41:00,82.5,8.7,30.06,South,182,3.7,8.1,6,0.00,CLR,,0.00,WeatherDisplay:10.37,2013-04-10 16:41:00,
2013-04-10 12:44:00,84.8,6.3,30.06,SSE,152,0.0,3.5,5,0.00,CLR,,0.00,WeatherDisplay:10.37,2013-04-10 16:44:00,
2013-04-10 12:45:00,85.4,6.7,30.06,SSE,152,0.0,0.0,5,0.00,CLR,,0.00,WeatherDisplay:10.37,2013-04-10 16:45:00,
2013-04-10 12:48:00,87.9,8.5,30.06,WSW,251,2.4,6.9,5,0.00,CLR,,0.00,WeatherDisplay:10.37,2013-04-10 16:48:00,
2013-04-10 12:49:00,87.2,12.1,30.06,NNW,340,5.7,9.2,6,0.00,CLR,,0.00,WeatherDisplay:10.37,2013-04-10 16:49:00,
2013-04-10 12:50:00,87.2,12.1,30.06,SSW,205,7.0,10.4,6,0.00,CLR,,0.00,WeatherDisplay:10.37,2013-04-10 16:50:00,
2013-04-10 12:53:00,83.7,9.6,30.05,SW,215,1.0,8.0,6,0.00,CLR,,0.00,WeatherDisplay:10.37,2013-04-10 16:53:00,
2013-04-10 12:54:00,83.5,9.4,30.05,WSW,248,6.2,10.4,6,0.00,CLR,,0.00,WeatherDisplay:10.37,2013-04-10 16:54:00,
2013-04-10 12:55:00,85.1,10.6,30.05,NW,304,4.8,10.4,6,0.00,CLR,,0.00,WeatherDisplay:10.37,2013-04-10 16:55:00,
2013-04-10 12:59:00,82.3,8.6,30.05,WSW,250,4.4,9.6,6,0.00,CLR,,0.00,WeatherDisplay:10.37,2013-04-10 16:59:00,
2013-04-10 13:00:00,80.3,7.1,30.05,West,263,7.8,10.4,6,0.00,CLR,,0.00,WeatherDisplay:10.37,2013-04-10 17:00:00,
2013-04-10 13:04:00,80.3,7.1,30.05,WNW,287,6.4,13.8,6,0.00,CLR,,0.00,WeatherDisplay:10.37,2013-04-10 17:04:00,
2013-04-10 13:05:00,80.3,7.1,30.05,SW,227,7.8,9.2,6,0.00,CLR,,0.00,WeatherDisplay:10.37,2013-04-10 17:05:00,
2013-04-10 13:09:00,82.4,8.6,30.05,West,267,3.9,8.1,6,0.00,CLR,,0.00,WeatherDisplay:10.37,2013-04-10 17:09:00,
2013-04-10 13:10:00,82.9,5.0,30.05,WSW,258,0.5,3.5,5,0.00,CLR,,0.00,WeatherDisplay:10.37,2013-04-10 17:10:00,
2013-04-10 13:14:00,87.0,7.9,30.04,SSW,195,0.0,5.8,5,0.00,CLR,,0.00,WeatherDisplay:10.37,2013-04-10 17:14:00,
2013-04-10 13:15:00,85.9,7.1,30.05,South,191,2.8,5.8,5,0.00,CLR,,0.00,WeatherDisplay:10.37,2013-04-10 17:15:00,
2013-04-10 13:19:00,89.1,9.3,30.04,SE,126,0.0,0.0,5,0.00,CLR,,0.00,WeatherDisplay:10.37,2013-04-10 17:19:00,
2013-04-10 13:20:00,89.2,9.4,30.04,SE,126,0.0,0.0,5,0.00,CLR,,0.00,WeatherDisplay:10.37,2013-04-10 17:20:00,
2013-04-10 13:24:00,90.2,5.2,30.04,SSW,210,3.8,5.8,4,0.00,CLR,,0.00,WeatherDisplay:10.37,2013-04-10 17:24:00,
2013-04-10 13:25:00,89.6,4.8,30.04,SSW,210,0.0,3.5,4,0.00,CLR,,0.00,WeatherDisplay:10.37,2013-04-10 17:25:00,
2013-04-10 13:26:00,89.5,4.7,30.04,SSW,210,0.0,3.5,4,0.00,CLR,,0.00,WeatherDisplay:10.37,2013-04-10 17:26:00,
2013-04-10 13:29:00,88.5,8.9,30.04,SSW,213,5.8,8.6,5,0.00,CLR,,0.00,WeatherDisplay:10.37,2013-04-10 17:29:00,
2013-04-10 13:30:00,88.2,8.7,30.03,ESE,123,4.5,10.4,5,0.00,CLR,,0.00,WeatherDisplay:10.37,2013-04-10 17:30:00,
2013-04-10 13:31:00,88.2,8.7,30.03,SSE,157,4.2,10.4,5,0.00,CLR,,0.00,WeatherDisplay:10.37,2013-04-10 17:31:00,
2013-04-10 13:34:00,88.9,9.2,30.03,West,263,0.6,5.8,5,0.00,CLR,,0.00,WeatherDisplay:10.37,2013-04-10 17:34:00,
2013-04-10 13:35:00,88.3,8.8,30.03,SSW,203,0.3,4.5,5,0.00,CLR,,0.00,WeatherDisplay:10.37,2013-04-10 17:35:00,
2013-04-10 13:36:00,89.1,9.3,30.03,SSW,195,2.1,4.6,5,0.00,CLR,,0.00,WeatherDisplay:10.37,2013-04-10 17:36:00,
2013-04-10 13:39:00,88.3,3.9,30.03,South,178,1.7,4.6,4,0.00,CLR,,0.00,WeatherDisplay:10.37,2013-04-10 17:39:00,
2013-04-10 13:40:00,88.8,4.2,30.03,NW,312,1.8,10.1,4,0.00,CLR,,0.00,WeatherDisplay:10.37,2013-04-10 17:40:00,
2013-04-10 13:41:00,87.3,3.2,30.03,WNW,289,8.3,10.4,4,0.00,CLR,,0.00,WeatherDisplay:10.37,2013-04-10 17:41:00,
2013-04-10 13:42:00,87.4,3.3,30.03,West,274,7.0,9.2,4,0.00,CLR,,0.00,WeatherDisplay:10.37,2013-04-10 17:42:00,
2013-04-10 13:44:00,87.2,8.0,30.03,West,278,6.3,10.4,5,0.00,CLR,,0.00,WeatherDisplay:10.37,2013-04-10 17:44:00,
2013-04-10 13:45:00,84.5,6.1,30.03,WSW,248,7.3,15.0,5,0.00,CLR,,0.00,WeatherDisplay:10.37,2013-04-10 17:45:00,
2013-04-10 13:47:00,84.5,6.1,30.03,West,274,9.6,15.0,5,0.00,CLR,,0.00,WeatherDisplay:10.37,2013-04-10 17:47:00,
2013-04-10 13:49:00,83.4,5.3,30.03,WNW,287,5.9,8.3,5,0.00,CLR,,0.00,WeatherDisplay:10.37,2013-04-10 17:49:00,
2013-04-10 13:51:00,84.2,1.0,30.03,WNW,284,0.7,10.4,4,0.00,CLR,,0.00,WeatherDisplay:10.37,2013-04-10 17:51:00,
2013-04-10 13:53:00,85.2,6.6,30.03,WNW,282,0.3,4.6,5,0.00,CLR,,0.00,WeatherDisplay:10.37,2013-04-10 17:53:00,
2013-04-10 13:54:00,86.6,2.7,30.02,WSW,248,1.6,4.6,4,0.00,CLR,,0.00,WeatherDisplay:10.37,2013-04-10 17:54:00,
2013-04-10 13:56:00,84.2,5.9,30.02,North,359,6.8,9.2,5,0.00,CLR,,0.00,WeatherDisplay:10.37,2013-04-10 17:56:00,
2013-04-10 13:58:00,83.7,5.5,30.02,WNW,284,7.9,9.2,5,0.00,CLR,,0.00,WeatherDisplay:10.37,2013-04-10 17:58:00,
2013-04-10 13:59:00,83.8,5.6,30.02,WSW,257,3.9,6.9,5,0.00,CLR,,0.00,WeatherDisplay:10.37,2013-04-10 17:59:00,
2013-04-10 14:01:00,85.5,6.8,30.02,SW,223,6.9,9.2,5,0.00,CLR,,0.00,WeatherDisplay:10.37,2013-04-10 18:01:00,
2013-04-10 14:03:00,83.9,5.7,30.02,SW,230,4.0,9.2,5,0.00,CLR,,0.00,WeatherDisplay:10.37,2013-04-10 18:03:00,
2013-04-10 14:04:00,84.4,6.0,30.02,SSE,168,1.7,5.8,5,0.00,CLR,,0.00,WeatherDisplay:10.37,2013-04-10 18:04:00,
2013-04-10 14:07:00,87.5,3.3,30.02,WSW,256,2.5,9.3,4,0.00,CLR,,0.00,WeatherDisplay:10.37,2013-04-10 18:07:00,
2013-04-10 14:08:00,87.6,3.4,30.02,WSW,244,5.1,9.2,4,0.00,CLR,,0.00,WeatherDisplay:10.37,2013-04-10 18:08:00,
2013-04-10 14:09:00,87.8,3.5,30.01,SW,223,6.0,12.7,4,0.00,CLR,,0.00,WeatherDisplay:10.37,2013-04-10 18:09:00,
2013-04-10 14:12:00,87.9,8.5,30.01,WSW,241,3.4,8.1,5,0.00,CLR,,0.00,WeatherDisplay:10.37,2013-04-10 18:12:00,
2013-04-10 14:13:00,87.6,8.3,30.01,SSE,167,0.3,4.6,5,0.00,CLR,,0.00,WeatherDisplay:10.37,2013-04-10 18:13:00,
2013-04-10 14:14:00,88.5,4.0,30.01,WNW,282,4.8,6.9,4,0.00,CLR,,0.00,WeatherDisplay:10.37,2013-04-10 18:14:00,
2013-04-10 14:15:00,87.2,3.1,30.01,West,263,6.5,10.4,4,0.00,CLR,,0.00,WeatherDisplay:10.37,2013-04-10 18:15:00,
2013-04-10 14:17:00,85.9,7.1,30.01,WNW,284,8.3,10.4,5,0.00,CLR,,0.00,WeatherDisplay:10.37,2013-04-10 18:17:00,
2013-04-10 14:18:00,86.1,7.2,30.01,SW,236,5.0,10.4,5,0.00,CLR,,0.00,WeatherDisplay:10.37,2013-04-10 18:18:00,
2013-04-10 14:19:00,86.7,7.7,30.01,SSW,195,3.1,6.9,5,0.00,CLR,,0.00,WeatherDisplay:10.37,2013-04-10 18:19:00,
2013-04-10 14:20:00,86.7,7.7,30.01,SSW,193,4.6,6.9,5,0.00,CLR,,0.00,WeatherDisplay:10.37,2013-04-10 18:20:00,
2013-04-10 14:22:00,87.8,8.4,30.01,SSW,210,4.3,9.2,5,0.00,CLR,,0.00,WeatherDisplay:10.37,2013-04-10 18:22:00,
2013-04-10 14:23:00,87.9,8.5,30.01,SSW,210,3.2,8.1,5,0.00,CLR,,0.00,WeatherDisplay:10.37,2013-04-10 18:23:00,
2013-04-10 14:24:00,88.1,8.6,30.01,SW,216,3.0,5.8,5,0.00,CLR,,0.00,WeatherDisplay:10.37,2013-04-10 18:24:00,
2013-04-10 14:25:00,88.6,9.0,30.01,SW,234,1.5,4.6,5,0.00,CLR,,0.00,WeatherDisplay:10.37,2013-04-10 18:25:00,
2013-04-10 14:27:00,89.3,4.6,30.01,WNW,301,8.7,9.2,4,0.00,CLR,,0.00,WeatherDisplay:10.37,2013-04-10 18:27:00,
2013-04-10 14:29:00,88.0,3.7,30.01,SW,220,5.3,10.9,4,0.00,CLR,,0.00,WeatherDisplay:10.37,2013-04-10 18:29:00,
2013-04-10 14:30:00,88.5,4.0,30.01,West,267,8.9,11.5,4,0.00,CLR,,0.00,WeatherDisplay:10.37,2013-04-10 18:30:00,
2013-04-10 14:33:00,87.8,3.5,30.01,WNW,289,0.0,0.0,4,0.00,CLR,,0.00,WeatherDisplay:10.37,2013-04-10 18:33:00,
2013-04-10 14:34:00,88.6,4.1,30.00,NW,311,2.3,9.3,4,0.00,CLR,,0.00,WeatherDisplay:10.37,2013-04-10 18:34:00,
2013-04-10 14:35:00,87.9,8.5,30.00,West,278,4.5,9.2,5,0.00,CLR,,0.00,WeatherDisplay:10.37,2013-04-10 18:35:00,
2013-04-10 14:38:00,88.0,3.7,30.01,West,268,1.8,4.6,4,0.00,CLR,,0.00,WeatherDisplay:10.37,2013-04-10 18:38:00,
2013-04-10 14:39:00,88.7,4.1,30.00,SSW,208,4.0,6.9,4,0.00,CLR,,0.00,WeatherDisplay:10.37,2013-04-10 18:39:00,
2013-04-10 14:42:00,89.1,4.4,30.01,West,275,6.1,11.5,4,0.00,CLR,,0.00,WeatherDisplay:10.37,2013-04-10 18:42:00,
2013-04-10 14:43:00,88.8,4.2,30.00,NW,323,6.9,10.4,4,0.00,CLR,,0.00,WeatherDisplay:10.37,2013-04-10 18:43:00,
2013-04-10 14:44:00,89.1,-1.8,30.00,SW,216,6.9,10.4,3,0.00,CLR,,0.00,WeatherDisplay:10.37,2013-04-10 18:44:00,
2013-04-10 14:45:00,88.9,-1.9,30.00,SW,219,7.2,10.4,3,0.00,CLR,,0.00,WeatherDisplay:10.37,2013-04-10 18:45:00,
2013-04-10 14:47:00,89.0,4.4,30.00,WNW,289,7.6,16.1,4,0.00,CLR,,0.00,WeatherDisplay:10.37,2013-04-10 18:47:00,
2013-04-10 14:49:00,88.7,4.1,30.00,WSW,251,8.2,11.5,4,0.00,CLR,,0.00,WeatherDisplay:10.37,2013-04-10 18:49:00,
2013-04-10 14:50:00,88.4,3.9,30.00,SW,219,2.4,9.2,4,0.00,CLR,,0.00,WeatherDisplay:10.37,2013-04-10 18:50:00,
2013-04-10 14:52:00,89.1,4.4,30.00,West,281,7.9,9.8,4,0.00,CLR,,0.00,WeatherDisplay:10.37,2013-04-10 18:52:00,
2013-04-10 14:54:00,89.8,4.9,30.00,WNW,292,5.6,8.1,4,0.00,CLR,,0.00,WeatherDisplay:10.37,2013-04-10 18:54:00,
2013-04-10 14:55:00,89.6,4.8,30.00,West,267,4.9,6.9,4,0.00,CLR,,0.00,WeatherDisplay:10.37,2013-04-10 18:55:00,
2013-04-10 14:57:00,89.0,-1.8,30.00,SW,236,6.8,8.5,3,0.00,CLR,,0.00,WeatherDisplay:10.37,2013-04-10 18:57:00,
2013-04-10 14:59:00,89.0,-1.8,30.00,West,280,7.2,9.2,3,0.00,CLR,,0.00,WeatherDisplay:10.37,2013-04-10 18:59:00,
2013-04-10 15:00:00,89.1,-1.8,30.00,SW,224,7.4,11.5,3,0.00,CLR,,0.00,WeatherDisplay:10.37,2013-04-10 19:00:00,
2013-04-10 15:03:00,89.9,5.0,30.00,West,278,5.2,9.2,4,0.00,CLR,,0.00,WeatherDisplay:10.37,2013-04-10 19:03:00,
2013-04-10 15:04:00,89.8,4.9,30.00,WSW,253,0.5,3.5,4,0.00,CLR,,0.00,WeatherDisplay:10.37,2013-04-10 19:04:00,
2013-04-10 15:05:00,90.3,-1.0,29.99,SW,222,2.7,6.3,3,0.00,CLR,,0.00,WeatherDisplay:10.37,2013-04-10 19:05:00,
2013-04-10 15:08:00,90.3,-1.0,29.99,SSE,158,5.0,10.4,3,0.00,CLR,,0.00,WeatherDisplay:10.37,2013-04-10 19:08:00,
2013-04-10 15:09:00,90.3,-1.0,29.99,SW,230,5.3,6.9,3,0.00,CLR,,0.00,WeatherDisplay:10.37,2013-04-10 19:09:00,
2013-04-10 15:10:00,90.2,-1.0,29.99,WSW,250,4.0,6.9,3,0.00,CLR,,0.00,WeatherDisplay:10.37,2013-04-10 19:10:00,
2013-04-10 15:11:00,90.4,-0.9,29.99,WSW,250,3.2,6.9,3,0.00,CLR,,0.00,WeatherDisplay:10.37,2013-04-10 19:11:00,
2013-04-10 15:13:00,90.8,-0.6,29.99,NW,313,4.1,6.9,3,0.00,CLR,,0.00,WeatherDisplay:10.37,2013-04-10 19:13:00,
2013-04-10 15:14:00,90.7,-0.7,29.99,SSW,205,6.0,10.4,3,0.00,CLR,,0.00,WeatherDisplay:10.37,2013-04-10 19:14:00,
2013-04-10 15:16:00,90.3,-1.0,29.99,WSW,256,6.9,10.4,3,0.00,CLR,,0.00,WeatherDisplay:10.37,2013-04-10 19:16:00,
2013-04-10 15:18:00,89.6,-1.4,29.98,West,270,7.2,18.4,3,0.00,CLR,,0.00,WeatherDisplay:10.37,2013-04-10 19:18:00,
2013-04-10 15:19:00,89.1,-1.8,29.98,West,278,8.2,11.5,3,0.00,CLR,,0.00,WeatherDisplay:10.37,2013-04-10 19:19:00,
2013-04-10 15:21:00,90.1,-1.1,29.98,West,274,7.4,10.4,3,0.00,CLR,,0.00,WeatherDisplay:10.37,2013-04-10 19:21:00,
2013-04-10 15:22:00,89.3,-1.6,29.98,West,281,4.2,9.2,3,0.00,CLR,,0.00,WeatherDisplay:10.37,2013-04-10 19:22:00,
2013-04-10 15:23:00,89.9,-1.2,29.98,WNW,298,8.1,10.4,3,0.00,CLR,,0.00,WeatherDisplay:10.37,2013-04-10 19:23:00,
2013-04-10 15:24:00,89.8,-1.3,29.98,West,278,6.4,12.7,3,0.00,CLR,,0.00,WeatherDisplay:10.37,2013-04-10 19:24:00,
2013-04-10 15:26:00,90.0,-1.2,29.98,WNW,284,5.6,9.2,3,0.00,CLR,,0.00,WeatherDisplay:10.37,2013-04-10 19:26:00,
2013-04-10 15:28:00,89.2,-1.7,29.98,NW,322,4.2,6.9,3,0.00,CLR,,0.00,WeatherDisplay:10.37,2013-04-10 19:28:00,
2013-04-10 15:30:00,89.9,-1.2,29.98,West,271,8.5,12.7,3,0.00,CLR,,0.00,WeatherDisplay:10.37,2013-04-10 19:30:00,
2013-04-10 15:31:00,89.9,-1.2,29.97,West,267,7.8,10.2,3,0.00,CLR,,0.00,WeatherDisplay:10.37,2013-04-10 19:31:00,
2013-04-10 15:33:00,90.1,5.1,29.98,West,280,6.8,12.7,4,0.00,CLR,,0.00,WeatherDisplay:10.37,2013-04-10 19:33:00,
2013-04-10 15:35:00,89.0,-1.8,29.98,WSW,256,8.4,11.5,3,0.00,CLR,,0.00,WeatherDisplay:10.37,2013-04-10 19:35:00,
2013-04-10 15:37:00,88.8,-2.0,29.98,West,264,4.8,11.5,3,0.00,CLR,,0.00,WeatherDisplay:10.37,2013-04-10 19:37:00,
2013-04-10 15:39:00,89.1,4.4,29.97,WNW,295,9.1,12.7,4,0.00,CLR,,0.00,WeatherDisplay:10.37,2013-04-10 19:39:00,
2013-04-10 15:40:00,89.1,4.4,29.97,WSW,240,4.0,9.2,4,0.00,CLR,,0.00,WeatherDisplay:10.37,2013-04-10 19:40:00,
2013-04-10 15:42:00,90.1,5.1,29.97,NW,304,4.2,8.1,4,0.00,CLR,,0.00,WeatherDisplay:10.37,2013-04-10 19:42:00,
2013-04-10 15:44:00,89.9,-1.2,29.97,SW,230,2.7,6.9,3,0.00,CLR,,0.00,WeatherDisplay:10.37,2013-04-10 19:44:00,
2013-04-10 15:45:00,90.7,-0.7,29.97,West,265,0.4,5.8,3,0.00,CLR,,0.00,WeatherDisplay:10.37,2013-04-10 19:45:00,
2013-04-10 15:47:00,90.0,-1.2,29.97,West,270,6.1,11.6,3,0.00,CLR,,0.00,WeatherDisplay:10.37,2013-04-10 19:47:00,
2013-04-10 15:49:00,90.2,5.2,29.97,SSW,209,3.6,11.5,4,0.00,CLR,,0.00,WeatherDisplay:10.37,2013-04-10 19:49:00,
2013-04-10 15:50:00,89.7,-1.4,29.97,SW,234,7.0,11.5,3,0.00,CLR,,0.00,WeatherDisplay:10.37,2013-04-10 19:50:00,
2013-04-10 15:52:00,89.8,4.9,29.96,West,261,6.6,10.4,4,0.00,CLR,,0.00,WeatherDisplay:10.37,2013-04-10 19:52:00,
2013-04-10 15:53:00,90.6,5.5,29.96,SSW,213,1.1,9.2,4,0.00,CLR,,0.00,WeatherDisplay:10.37,2013-04-10 19:53:00,
2013-04-10 15:54:00,90.3,-1.0,29.96,West,281,3.8,6.9,3,0.00,CLR,,0.00,WeatherDisplay:10.37,2013-04-10 19:54:00,
2013-04-10 15:55:00,91.1,5.8,29.96,WNW,296,7.7,12.7,4,0.00,CLR,,0.00,WeatherDisplay:10.37,2013-04-10 19:55:00,
2013-04-10 15:57:00,90.6,5.5,29.96,SW,215,4.0,10.4,4,0.00,CLR,,0.00,WeatherDisplay:10.37,2013-04-10 19:57:00,
2013-04-10 15:58:00,91.1,5.8,29.96,SW,215,0.4,5.8,4,0.00,CLR,,0.00,WeatherDisplay:10.37,2013-04-10 19:58:00,
2013-04-10 15:59:00,91.4,-0.2,29.96,West,267,6.6,10.9,3,0.00,CLR,,0.00,WeatherDisplay:10.37,2013-04-10 19:59:00,
2013-04-10 16:00:00,91.8,0.0,29.96,SSW,205,7.1,12.7,3,0.00,CLR,,0.00,WeatherDisplay:10.37,2013-04-10 20:00:00,
2013-04-10 16:02:00,91.2,-0.4,29.96,SW,222,4.8,11.5,3,0.00,CLR,,0.00,WeatherDisplay:10.37,2013-04-10 20:02:00,
2013-04-10 16:03:00,90.8,-0.6,29.96,SW,224,3.7,8.1,3,0.00,CLR,,0.00,WeatherDisplay:10.37,2013-04-10 20:03:00,
2013-04-10 16:04:00,90.9,-0.6,29.96,West,263,6.9,8.1,3,0.00,CLR,,0.00,WeatherDisplay:10.37,2013-04-10 20:04:00,
2013-04-10 16:05:00,91.2,-0.4,29.96,SW,216,8.2,12.7,3,0.00,CLR,,0.00,WeatherDisplay:10.37,2013-04-10 20:05:00,
2013-04-10 16:08:00,91.9,0.1,29.96,SSE,162,1.2,6.9,3,0.00,CLR,,0.00,WeatherDisplay:10.37,2013-04-10 20:08:00,
2013-04-10 16:09:00,92.5,0.5,29.95,WSW,250,3.1,0.0,3,0.00,CLR,,0.00,WeatherDisplay:10.37,2013-04-10 20:09:00,
2013-04-10 16:10:00,92.8,0.7,29.95,WNW,299,2.7,6.9,3,0.00,CLR,,0.00,WeatherDisplay:10.37,2013-04-10 20:10:00,
2013-04-10 16:13:00,91.6,-0.1,29.95,SW,230,6.7,10.4,3,0.00,CLR,,0.00,WeatherDisplay:10.37,2013-04-10 20:13:00,
2013-04-10 16:15:00,91.4,-0.2,29.95,WNW,298,3.9,11.5,3,0.00,CLR,,0.00,WeatherDisplay:10.37,2013-04-10 20:15:00,
2013-04-10 16:18:00,91.7,0.0,29.95,WNW,287,5.1,8.1,3,0.00,CLR,,0.00,WeatherDisplay:10.37,2013-04-10 20:18:00,
2013-04-10 16:20:00,90.8,-0.6,29.95,WNW,291,9.0,10.4,3,0.00,CLR,,0.00,WeatherDisplay:10.37,2013-04-10 20:20:00,
2013-04-10 16:24:00,90.4,5.3,29.95,West,277,6.2,9.2,4,0.00,CLR,,0.00,WeatherDisplay:10.37,2013-04-10 20:24:00,
2013-04-10 16:25:00,90.2,-1.0,29.95,NNW,340,4.7,6.9,3,0.00,CLR,,0.00,WeatherDisplay:10.37,2013-04-10 20:25:00,
2013-04-10 16:29:00,90.7,-0.7,29.95,SSW,210,4.0,8.1,3,0.00,CLR,,0.00,WeatherDisplay:10.37,2013-04-10 20:29:00,
2013-04-10 16:30:00,91.2,-0.4,29.95,SSW,208,6.6,10.4,3,0.00,CLR,,0.00,WeatherDisplay:10.37,2013-04-10 20:30:00,
2013-04-10 16:35:00,91.4,-0.2,29.95,SW,215,5.3,8.1,3,0.00,CLR,,0.00,WeatherDisplay:10.37,2013-04-10 20:35:00,
2013-04-10 16:36:00,90.8,-0.6,29.95,SSW,206,5.6,8.1,3,0.00,CLR,,0.00,WeatherDisplay:10.37,2013-04-10 20:36:00,
2013-04-10 16:40:00,91.8,0.0,29.95,WNW,299,3.1,6.9,3,0.00,CLR,,0.00,WeatherDisplay:10.37,2013-04-10 20:40:00,
2013-04-10 16:41:00,91.2,-8.8,29.95,South,191,1.0,4.6,2,0.00,CLR,,0.00,WeatherDisplay:10.37,2013-04-10 20:41:00,
2013-04-10 16:45:00,91.9,-8.4,29.94,WNW,291,7.0,10.4,2,0.00,CLR,,0.00,WeatherDisplay:10.37,2013-04-10 20:45:00,
2013-04-10 16:46:00,91.5,-0.2,29.94,WSW,243,7.0,10.4,3,0.00,CLR,,0.00,WeatherDisplay:10.37,2013-04-10 20:46:00,
2013-04-10 16:47:00,91.8,-8.4,29.94,WSW,257,7.5,10.7,2,0.00,CLR,,0.00,WeatherDisplay:10.37,2013-04-10 20:47:00,
2013-04-10 16:50:00,91.1,-0.4,29.94,West,281,2.3,5.8,3,0.00,CLR,,0.00,WeatherDisplay:10.37,2013-04-10 20:50:00,
2013-04-10 16:51:00,91.0,-8.9,29.94,WSW,257,5.3,5.8,2,0.00,CLR,,0.00,WeatherDisplay:10.37,2013-04-10 20:51:00,
2013-04-10 16:52:00,91.3,-8.8,29.94,WSW,257,0.3,9.2,2,0.00,CLR,,0.00,WeatherDisplay:10.37,2013-04-10 20:52:00,
2013-04-10 16:56:00,92.0,-8.3,29.94,WSW,258,5.0,8.1,2,0.00,CLR,,0.00,WeatherDisplay:10.37,2013-04-10 20:56:00,
2013-04-10 16:57:00,91.9,-8.4,29.94,WNW,299,3.3,8.1,2,0.00,CLR,,0.00,WeatherDisplay:10.37,2013-04-10 20:57:00,
2013-04-10 17:01:00,90.8,-0.6,29.94,West,261,7.9,10.7,3,0.00,CLR,,0.00,WeatherDisplay:10.37,2013-04-10 21:01:00,
2013-04-10 17:02:00,91.1,-8.9,29.94,WNW,294,6.5,10.4,2,0.00,CLR,,0.00,WeatherDisplay:10.37,2013-04-10 21:02:00,
2013-04-10 17:03:00,91.0,-8.9,29.94,NW,304,3.4,9.2,2,0.00,CLR,,0.00,WeatherDisplay:10.37,2013-04-10 21:03:00,
2013-04-10 17:06:00,90.9,-9.0,29.94,NW,313,6.9,13.8,2,0.00,CLR,,0.00,WeatherDisplay:10.37,2013-04-10 21:06:00,
2013-04-10 17:07:00,90.8,-9.1,29.94,WNW,302,8.3,12.7,2,0.00,CLR,,0.00,WeatherDisplay:10.37,2013-04-10 21:07:00,
2013-04-10 17:08:00,90.6,-9.2,29.94,NW,313,7.4,12.7,2,0.00,CLR,,0.00,WeatherDisplay:10.37,2013-04-10 21:08:00,
2013-04-10 17:11:00,91.1,-8.9,29.93,West,261,1.9,5.8,2,0.00,CLR,,0.00,WeatherDisplay:10.37,2013-04-10 21:11:00,
2013-04-10 17:12:00,91.0,-8.9,29.93,West,263,6.5,10.4,2,0.00,CLR,,0.00,WeatherDisplay:10.37,2013-04-10 21:12:00,
2013-04-10 17:13:00,91.4,-8.7,29.93,NNW,329,5.9,10.4,2,0.00,CLR,,0.00,WeatherDisplay:10.37,2013-04-10 21:13:00,
2013-04-10 17:17:00,92.2,-8.2,29.93,ESE,117,3.9,8.1,2,0.00,CLR,,0.00,WeatherDisplay:10.37,2013-04-10 21:17:00,
2013-04-10 17:18:00,93.0,-7.7,29.93,ESE,117,0.0,5.8,2,0.00,CLR,,0.00,WeatherDisplay:10.37,2013-04-10 21:18:00,
2013-04-10 17:22:00,93.4,-7.4,29.93,NW,318,1.1,5.2,2,0.00,CLR,,0.00,WeatherDisplay:10.37,2013-04-10 21:22:00,
2013-04-10 17:23:00,93.2,-7.5,29.93,West,270,3.3,5.8,2,0.00,CLR,,0.00,WeatherDisplay:10.37,2013-04-10 21:23:00,
2013-04-10 17:27:00,91.9,-8.4,29.93,WSW,237,1.3,8.1,2,0.00,CLR,,0.00,WeatherDisplay:10.37,2013-04-10 21:27:00,
2013-04-10 17:28:00,92.4,-8.1,29.93,West,265,0.3,5.9,2,0.00,CLR,,0.00,WeatherDisplay:10.37,2013-04-10 21:28:00,
2013-04-10 17:32:00,91.0,-8.9,29.93,NW,308,1.7,6.9,2,0.00,CLR,,0.00,WeatherDisplay:10.37,2013-04-10 21:32:00,
2013-04-10 17:33:00,91.0,-8.9,29.93,WSW,257,6.1,6.9,2,0.00,CLR,,0.00,WeatherDisplay:10.37,2013-04-10 21:33:00,
2013-04-10 17:37:00,91.3,-8.8,29.93,NW,311,6.4,8.1,2,0.00,CLR,,0.00,WeatherDisplay:10.37,2013-04-10 21:37:00,
2013-04-10 17:38:00,92.2,-8.2,29.93,WNW,291,3.6,8.1,2,0.00,CLR,,0.00,WeatherDisplay:10.37,2013-04-10 21:38:00,
2013-04-10 17:42:00,91.4,6.0,29.93,SW,216,6.1,8.1,4,0.00,CLR,,0.00,WeatherDisplay:10.37,2013-04-10 21:42:00,
2013-04-10 17:43:00,91.4,6.0,29.93,SW,229,6.1,9.2,4,0.00,CLR,,0.00,WeatherDisplay:10.37,2013-04-10 21:43:00,
2013-04-10 17:44:00,90.9,5.7,29.93,WSW,240,2.5,8.1,4,0.00,CLR,,0.00,WeatherDisplay:10.37,2013-04-10 21:44:00,
2013-04-10 17:47:00,91.8,6.3,29.93,WSW,240,0.0,0.0,4,0.00,CLR,,0.00,WeatherDisplay:10.37,2013-04-10 21:47:00,
2013-04-10 17:48:00,93.1,7.2,29.93,WSW,240,0.0,0.0,4,0.00,CLR,,0.00,WeatherDisplay:10.37,2013-04-10 21:48:00,
2013-04-10 17:49:00,93.0,7.1,29.93,South,171,3.2,8.1,4,0.00,CLR,,0.00,WeatherDisplay:10.37,2013-04-10 21:49:00,
2013-04-10 17:53:00,92.9,7.0,29.92,SE,126,2.5,6.9,4,0.00,CLR,,0.00,WeatherDisplay:10.37,2013-04-10 21:53:00,
2013-04-10 17:54:00,92.5,0.5,29.92,WNW,287,6.6,8.1,3,0.00,CLR,,0.00,WeatherDisplay:10.37,2013-04-10 21:54:00,
2013-04-10 17:58:00,92.9,0.8,29.92,WSW,247,0.0,3.5,3,0.00,CLR,,0.00,WeatherDisplay:10.37,2013-04-10 21:58:00,
2013-04-10 17:59:00,93.2,1.0,29.92,SE,137,1.8,3.5,3,0.00,CLR,,0.00,WeatherDisplay:10.37,2013-04-10 21:59:00,
2013-04-10 18:03:00,94.1,7.8,29.92,South,191,0.6,5.8,4,0.00,CLR,,0.00,WeatherDisplay:10.37,2013-04-10 22:03:00,
2013-04-10 18:05:00,94.0,7.8,29.92,West,261,3.9,5.8,4,0.00,CLR,,0.00,WeatherDisplay:10.37,2013-04-10 22:05:00,
2013-04-10 18:08:00,93.2,7.2,29.92,SSE,148,3.7,8.1,4,0.00,CLR,,0.00,WeatherDisplay:10.37,2013-04-10 22:08:00,
2013-04-10 18:09:00,94.4,8.1,29.92,SSE,148,0.0,5.8,4,0.00,CLR,,0.00,WeatherDisplay:10.37,2013-04-10 22:09:00,
2013-04-10 18:10:00,93.3,7.3,29.92,SSE,148,0.0,0.0,4,0.00,CLR,,0.00,WeatherDisplay:10.37,2013-04-10 22:10:00,
2013-04-10 18:13:00,93.1,7.2,29.92,ESE,106,5.4,15.0,4,0.00,CLR,,0.00,WeatherDisplay:10.37,2013-04-10 22:13:00,
2013-04-10 18:14:00,93.1,7.2,29.92,SE,133,6.0,9.2,4,0.00,CLR,,0.00,WeatherDisplay:10.37,2013-04-10 22:14:00,
2013-04-10 18:15:00,93.8,7.6,29.92,SSW,212,0.6,3.5,4,0.00,CLR,,0.00,WeatherDisplay:10.37,2013-04-10 22:15:00,
2013-04-10 18:18:00,92.9,7.0,29.92,SSE,152,3.3,10.4,4,0.00,CLR,,0.00,WeatherDisplay:10.37,2013-04-10 22:18:00,
2013-04-10 18:19:00,92.3,6.6,29.92,WSW,258,1.0,5.8,4,0.00,CLR,,0.00,WeatherDisplay:10.37,2013-04-10 22:19:00,
2013-04-10 18:20:00,92.9,7.0,29.92,WSW,246,4.7,8.1,4,0.00,CLR,,0.00,WeatherDisplay:10.37,2013-04-10 22:20:00,
2013-04-10 18:23:00,92.8,7.0,29.92,East,96,0.5,2.7,4,0.00,CLR,,0.00,WeatherDisplay:10.37,2013-04-10 22:23:00,
2013-04-10 18:24:00,92.5,6.8,29.92,WNW,301,2.3,5.5,4,0.00,CLR,,0.00,WeatherDisplay:10.37,2013-04-10 22:24:00,
2013-04-10 18:26:00,91.7,6.2,29.92,SE,124,3.4,8.1,4,0.00,CLR,,0.00,WeatherDisplay:10.37,2013-04-10 22:26:00,
2013-04-10 18:28:00,91.3,5.9,29.92,SSE,148,6.8,11.5,4,0.00,CLR,,0.00,WeatherDisplay:10.37,2013-04-10 22:28:00,
2013-04-10 18:29:00,91.2,5.9,29.92,SW,232,6.6,11.5,4,0.00,CLR,,0.00,WeatherDisplay:10.37,2013-04-10 22:29:00,
2013-04-10 18:30:00,91.4,6.0,29.92,SSE,151,4.8,9.2,4,0.00,CLR,,0.00,WeatherDisplay:10.37,2013-04-10 22:30:00,
2013-04-10 18:31:00,91.0,5.7,29.92,SE,134,4.4,11.5,4,0.00,CLR,,0.00,WeatherDisplay:10.37,2013-04-10 22:31:00,
2013-04-10 18:33:00,91.1,10.8,29.92,South,181,4.8,10.4,5,0.00,CLR,,0.00,WeatherDisplay:10.37,2013-04-10 22:33:00,
2013-04-10 18:34:00,91.4,6.0,29.92,South,181,0.0,4.6,4,0.00,CLR,,0.00,WeatherDisplay:10.37,2013-04-10 22:34:00,
2013-04-10 18:35:00,91.7,6.2,29.92,South,169,1.5,5.8,4,0.00,CLR,,0.00,WeatherDisplay:10.37,2013-04-10 22:35:00,
2013-04-10 18:36:00,91.5,6.1,29.92,South,178,3.5,6.8,4,0.00,CLR,,0.00,WeatherDisplay:10.37,2013-04-10 22:36:00,
2013-04-10 18:38:00,91.2,5.9,29.92,South,188,8.2,12.7,4,0.00,CLR,,0.00,WeatherDisplay:10.37,2013-04-10 22:38:00,
2013-04-10 18:39:00,90.7,10.5,29.92,SW,226,6.9,11.5,5,0.00,CLR,,0.00,WeatherDisplay:10.37,2013-04-10 22:39:00,
2013-04-10 18:40:00,90.8,10.5,29.92,East,92,5.9,9.2,5,0.00,CLR,,0.00,WeatherDisplay:10.37,2013-04-10 22:40:00,
2013-04-10 18:42:00,90.6,10.4,29.92,SSW,198,5.9,9.2,5,0.00,CLR,,0.00,WeatherDisplay:10.37,2013-04-10 22:42:00,
2013-04-10 18:43:00,90.6,10.4,29.92,SSW,198,5.9,9.2,5,0.00,CLR,,0.00,WeatherDisplay:10.37,2013-04-10 22:43:00,
2013-04-10 18:45:00,90.6,10.4,29.92,East,88,0.0,9.2,5,0.00,CLR,,0.00,WeatherDisplay:10.37,2013-04-10 22:45:00,
2013-04-10 18:48:00,90.6,10.4,29.92,East,88,0.0,9.2,5,0.00,CLR,,0.00,WeatherDisplay:10.37,2013-04-10 22:48:00,
2013-04-10 18:50:00,90.6,10.4,29.92,East,88,0.0,9.2,5,0.00,CLR,,0.00,WeatherDisplay:10.37,2013-04-10 22:50:00,
2013-04-10 18:53:00,90.6,10.4,29.92,East,88,0.0,9.2,5,0.00,CLR,,0.00,WeatherDisplay:10.37,2013-04-10 22:53:00,
2013-04-10 18:54:00,90.6,10.4,29.92,East,88,0.0,9.2,5,0.00,CLR,,0.00,WeatherDisplay:10.37,2013-04-10 22:54:00,
2013-04-10 19:09:00,88.3,12.9,29.92,South,181,0.0,9.2,6,0.00,CLR,,0.00,WeatherDisplay:10.37,2013-04-10 23:09:00,
2013-04-10 19:10:00,88.3,12.9,29.92,South,172,0.0,9.2,6,0.00,CLR,,0.00,WeatherDisplay:10.37,2013-04-10 23:10:00,
2013-04-10 19:14:00,87.9,8.5,29.92,South,169,2.7,5.8,5,0.00,CLR,,0.00,WeatherDisplay:10.37,2013-04-10 23:14:00,
2013-04-10 19:15:00,87.9,8.5,29.92,South,169,2.7,10.4,5,0.00,CLR,,0.00,WeatherDisplay:10.37,2013-04-10 23:15:00,
2013-04-10 19:19:00,86.1,7.2,29.92,ESE,102,0.0,5.8,5,0.00,CLR,,0.00,WeatherDisplay:10.37,2013-04-10 23:19:00,
2013-04-10 19:20:00,86.1,7.2,29.92,ESE,102,0.0,0.0,5,0.00,CLR,,0.00,WeatherDisplay:10.37,2013-04-10 23:20:00,
2013-04-10 19:25:00,83.9,9.7,29.92,SW,222,6.3,10.4,6,0.00,CLR,,0.00,WeatherDisplay:10.37,2013-04-10 23:25:00,
2013-04-10 19:30:00,83.0,9.1,29.92,South,174,1.8,8.1,6,0.00,CLR,,0.00,WeatherDisplay:10.37,2013-04-10 23:30:00,
2013-04-10 19:31:00,82.2,8.5,29.92,ENE,75,3.4,6.9,6,0.00,CLR,,0.00,WeatherDisplay:10.37,2013-04-10 23:31:00,
2013-04-10 19:35:00,80.6,7.3,29.92,SSE,162,4.9,9.2,6,0.00,CLR,,0.00,WeatherDisplay:10.37,2013-04-10 23:35:00,
2013-04-10 19:36:00,81.6,8.1,29.92,WSW,257,3.4,6.9,6,0.00,CLR,,0.00,WeatherDisplay:10.37,2013-04-10 23:36:00,
2013-04-10 19:40:00,80.7,7.4,29.92,WSW,241,4.7,9.2,6,0.00,CLR,,0.00,WeatherDisplay:10.37,2013-04-10 23:40:00,
2013-04-10 19:41:00,80.0,6.9,29.92,SSE,148,7.9,8.1,6,0.00,CLR,,0.00,WeatherDisplay:10.37,2013-04-10 23:41:00,
2013-04-10 19:45:00,79.8,6.8,29.92,SSE,150,2.4,8.1,6,0.00,CLR,,0.00,WeatherDisplay:10.37,2013-04-10 23:45:00,
2013-04-10 19:47:00,79.9,6.8,29.92,SW,227,3.4,9.2,6,0.00,CLR,,0.00,WeatherDisplay:10.37,2013-04-10 23:47:00,
2013-04-10 19:50:00,79.2,6.3,29.92,ESE,117,6.3,9.2,6,0.00,CLR,,0.00,WeatherDisplay:10.37,2013-04-10 23:50:00,
2013-04-10 19:51:00,79.7,6.7,29.92,SSW,196,5.2,9.2,6,0.00,CLR,,0.00,WeatherDisplay:10.37,2013-04-10 23:51:00,
2013-04-10 19:52:00,79.2,6.3,29.92,ESE,119,3.7,6.9,6,0.00,CLR,,0.00,WeatherDisplay:10.37,2013-04-10 23:52:00,
2013-04-10 19:55:00,80.2,7.1,29.92,SSE,161,2.2,15.0,6,0.00,CLR,,0.00,WeatherDisplay:10.37,2013-04-10 23:55:00,
2013-04-10 19:56:00,79.1,6.3,29.92,SSE,161,0.0,3.5,6,0.00,CLR,,0.00,WeatherDisplay:10.37,2013-04-10 23:56:00,
2013-04-10 19:58:00,80.1,7.0,29.92,SW,229,3.5,11.5,6,0.00,CLR,,0.00,WeatherDisplay:10.37,2013-04-10 23:58:00,
2013-04-10 20:00:00,79.1,9.7,29.92,West,275,0.0,8.1,7,0.00,CLR,,0.00,WeatherDisplay:10.37,2013-04-11 00:00:00,
2013-04-10 20:01:00,79.3,9.8,29.92,South,176,2.1,6.9,7,0.00,CLR,,0.00,WeatherDisplay:10.37,2013-04-11 00:01:00,
2013-04-10 20:02:00,79.9,10.3,29.93,SSW,209,2.6,5.8,7,0.00,CLR,,0.00,WeatherDisplay:10.37,2013-04-11 00:02:00,
2013-04-10 20:03:00,78.2,9.0,29.92,SSW,193,2.0,5.8,7,0.00,CLR,,0.00,WeatherDisplay:10.37,2013-04-11 00:03:00,
2013-04-10 20:05:00,79.3,9.8,29.93,WSW,243,1.2,8.4,7,0.00,CLR,,0.00,WeatherDisplay:10.37,2013-04-11 00:05:00,
2013-04-10 20:06:00,78.4,9.2,29.93,SSW,192,3.7,8.1,7,0.00,CLR,,0.00,WeatherDisplay:10.37,2013-04-11 00:06:00,
2013-04-10 20:07:00,78.1,8.9,29.93,SSW,192,0.0,6.9,7,0.00,CLR,,0.00,WeatherDisplay:10.37,2013-04-11 00:07:00,
2013-04-10 20:08:00,79.2,9.8,29.93,East,99,0.9,2.7,7,0.00,CLR,,0.00,WeatherDisplay:10.37,2013-04-11 00:08:00,
2013-04-10 20:10:00,78.7,9.4,29.93,NW,315,3.1,10.8,7,0.00,CLR,,0.00,WeatherDisplay:10.37,2013-04-11 00:10:00,
2013-04-10 20:11:00,78.7,9.4,29.93,SSE,160,4.4,11.5,7,0.00,CLR,,0.00,WeatherDisplay:10.37,2013-04-11 00:11:00,
2013-04-10 20:13:00,78.8,9.5,29.93,SSE,160,0.0,0.0,7,0.00,CLR,,0.00,WeatherDisplay:10.37,2013-04-11 00:13:00,
2013-04-10 20:16:00,78.0,8.9,29.93,SSE,168,0.0,0.0,7,0.00,CLR,,0.00,WeatherDisplay:10.37,2013-04-11 00:16:00,
2013-04-10 20:17:00,78.0,8.9,29.93,SW,224,4.0,9.2,7,0.00,CLR,,0.00,WeatherDisplay:10.37,2013-04-11 00:17:00,
2013-04-10 20:18:00,77.8,8.7,29.93,SW,224,2.0,9.2,7,0.00,CLR,,0.00,WeatherDisplay:10.37,2013-04-11 00:18:00,
2013-04-10 20:21:00,79.0,9.6,29.93,South,178,4.3,6.9,7,0.00,CLR,,0.00,WeatherDisplay:10.37,2013-04-11 00:21:00,
2013-04-10 20:22:00,78.2,9.0,29.93,SSE,165,3.7,8.7,7,0.00,CLR,,0.00,WeatherDisplay:10.37,2013-04-11 00:22:00,
2013-04-10 20:23:00,79.0,9.6,29.93,South,174,5.8,9.2,7,0.00,CLR,,0.00,WeatherDisplay:10.37,2013-04-11 00:23:00,
2013-04-10 20:26:00,77.4,8.4,29.93,SW,219,1.8,6.9,7,0.00,CLR,,0.00,WeatherDisplay:10.37,2013-04-11 00:26:00,
2013-04-10 20:27:00,77.5,8.5,29.93,SSE,168,2.0,7.0,7,0.00,CLR,,0.00,WeatherDisplay:10.37,2013-04-11 00:27:00,
2013-04-10 20:28:00,77.9,8.8,29.93,SW,229,5.1,8.1,7,0.00,CLR,,0.00,WeatherDisplay:10.37,2013-04-11 00:28:00,
2013-04-10 20:31:00,78.2,12.0,29.93,South,175,1.7,4.6,8,0.00,CLR,,0.00,WeatherDisplay:10.37,2013-04-11 00:31:00,
2013-04-10 20:32:00,78.0,11.9,29.93,South,175,0.0,3.5,8,0.00,CLR,,0.00,WeatherDisplay:10.37,2013-04-11 00:32:00,
2013-04-10 20:33:00,77.3,11.3,29.93,South,175,0.0,0.0,8,0.00,CLR,,0.00,WeatherDisplay:10.37,2013-04-11 00:33:00,
2013-04-10 20:36:00,77.8,11.7,29.94,SE,128,3.3,3.5,8,0.00,CLR,,0.00,WeatherDisplay:10.37,2013-04-11 00:36:00,
2013-04-10 20:38:00,77.7,11.6,29.94,SSW,209,1.1,5.8,8,0.00,CLR,,0.00,WeatherDisplay:10.37,2013-04-11 00:38:00,
2013-04-10 20:42:00,77.4,11.4,29.94,ESE,117,0.0,2.3,8,0.00,CLR,,0.00,WeatherDisplay:10.37,2013-04-11 00:42:00,
2013-04-10 20:43:00,78.1,14.6,29.94,East,96,3.8,5.8,9,0.00,CLR,,0.00,WeatherDisplay:10.37,2013-04-11 00:43:00,
2013-04-10 20:47:00,77.2,11.3,29.93,WSW,251,4.0,10.4,8,0.00,CLR,,0.00,WeatherDisplay:10.37,2013-04-11 00:47:00,
2013-04-10 20:48:00,78.0,14.5,29.93,SSW,192,4.9,9.2,9,0.00,CLR,,0.00,WeatherDisplay:10.37,2013-04-11 00:48:00,
2013-04-10 20:49:00,77.4,11.4,29.94,South,174,6.1,10.4,8,0.00,CLR,,0.00,WeatherDisplay:10.37,2013-04-11 00:49:00,
2013-04-10 20:52:00,77.7,11.6,29.94,East,83,0.0,4.6,8,0.00,CLR,,0.00,WeatherDisplay:10.37,2013-04-11 00:52:00,
2013-04-10 20:53:00,77.2,11.3,29.94,East,83,0.3,0.0,8,0.00,CLR,,0.00,WeatherDisplay:10.37,2013-04-11 00:53:00,
2013-04-10 20:54:00,77.1,11.2,29.94,East,83,0.3,2.3,8,0.00,CLR,,0.00,WeatherDisplay:10.37,2013-04-11 00:54:00,
2013-04-10 20:57:00,77.2,13.9,29.94,WSW,243,1.4,4.6,9,0.00,CLR,,0.00,WeatherDisplay:10.37,2013-04-11 00:57:00,
2013-04-10 20:59:00,77.3,14.0,29.94,ENE,73,2.4,5.8,9,0.00,CLR,,0.00,WeatherDisplay:10.37,2013-04-11 00:59:00,
2013-04-10 21:02:00,77.3,14.0,29.94,WSW,243,0.0,0.0,9,0.00,CLR,,0.00,WeatherDisplay:10.37,2013-04-11 01:02:00,
2013-04-10 21:04:00,77.3,14.0,29.94,WSW,243,0.0,0.0,9,0.00,CLR,,0.00,WeatherDisplay:10.37,2013-04-11 01:04:00,
2013-04-10 21:07:00,77.0,13.8,29.94,NNE,17,0.0,0.0,9,0.00,CLR,,0.00,WeatherDisplay:10.37,2013-04-11 01:07:00,
2013-04-10 21:09:00,77.1,13.9,29.94,WSW,251,0.0,3.5,9,0.00,CLR,,0.00,WeatherDisplay:10.37,2013-04-11 01:09:00,
2013-04-10 21:13:00,77.3,16.4,29.94,SSW,199,1.2,5.0,10,0.00,CLR,,0.00,WeatherDisplay:10.37,2013-04-11 01:13:00,
2013-04-10 21:14:00,77.1,16.3,29.94,South,188,0.2,5.8,10,0.00,CLR,,0.00,WeatherDisplay:10.37,2013-04-11 01:14:00,
2013-04-10 21:18:00,77.2,16.4,29.94,South,188,0.0,0.0,10,0.00,CLR,,0.00,WeatherDisplay:10.37,2013-04-11 01:18:00,
2013-04-10 21:19:00,77.7,14.3,29.94,South,188,0.0,0.0,9,0.00,CLR,,0.00,WeatherDisplay:10.37,2013-04-11 01:19:00,
2013-04-10 21:23:00,77.5,16.6,29.94,South,188,0.0,0.0,10,0.00,CLR,,0.00,WeatherDisplay:10.37,2013-04-11 01:23:00,
2013-04-10 21:24:00,77.1,16.3,29.94,SSW,196,1.2,5.5,10,0.00,CLR,,0.00,WeatherDisplay:10.37,2013-04-11 01:24:00,
2013-04-10 21:25:00,77.2,16.4,29.94,South,178,4.2,6.9,10,0.00,CLR,,0.00,WeatherDisplay:10.37,2013-04-11 01:25:00,
2013-04-10 21:28:00,77.1,16.3,29.94,South,178,0.0,0.0,10,0.00,CLR,,0.00,WeatherDisplay:10.37,2013-04-11 01:28:00,
2013-04-10 21:29:00,76.8,16.1,29.94,WSW,244,1.3,3.3,10,0.00,CLR,,0.00,WeatherDisplay:10.37,2013-04-11 01:29:00,
2013-04-10 21:30:00,77.1,16.3,29.94,WSW,258,2.4,5.4,10,0.00,CLR,,0.00,WeatherDisplay:10.37,2013-04-11 01:30:00,
2013-04-10 21:33:00,77.0,16.2,29.95,WNW,289,4.0,6.9,10,0.00,CLR,,0.00,WeatherDisplay:10.37,2013-04-11 01:33:00,
2013-04-10 21:34:00,76.9,16.1,29.95,WNW,289,0.0,5.8,10,0.00,CLR,,0.00,WeatherDisplay:10.37,2013-04-11 01:34:00,
2013-04-10 21:35:00,76.9,16.1,29.95,WNW,289,0.0,0.0,10,0.00,CLR,,0.00,WeatherDisplay:10.37,2013-04-11 01:35:00,
2013-04-10 21:39:00,77.0,16.2,29.95,WNW,289,0.0,0.0,10,0.00,CLR,,0.00,WeatherDisplay:10.37,2013-04-11 01:39:00,
2013-04-10 21:40:00,76.9,18.3,29.95,WNW,289,0.0,0.0,11,0.00,CLR,,0.00,WeatherDisplay:10.37,2013-04-11 01:40:00,
2013-04-10 21:44:00,77.0,18.4,29.95,WSW,248,0.3,2.3,11,0.00,CLR,,0.00,WeatherDisplay:10.37,2013-04-11 01:44:00,
2013-04-10 21:45:00,76.9,18.3,29.95,WSW,248,0.0,0.0,11,0.00,CLR,,0.00,WeatherDisplay:10.37,2013-04-11 01:45:00,
2013-04-10 21:49:00,77.3,18.7,29.95,South,189,1.5,5.8,11,0.00,CLR,,0.00,WeatherDisplay:10.37,2013-04-11 01:49:00,
2013-04-10 21:50:00,76.8,18.3,29.95,South,176,1.9,5.8,11,0.00,CLR,,0.00,WeatherDisplay:10.37,2013-04-11 01:50:00,
2013-04-10 21:55:00,76.9,16.1,29.95,WSW,257,0.0,0.0,10,0.00,CLR,,0.00,WeatherDisplay:10.37,2013-04-11 01:55:00,
2013-04-10 22:00:00,77.0,16.2,29.95,SE,136,0.0,0.0,10,0.00,CLR,,0.00,WeatherDisplay:10.37,2013-04-11 02:00:00,
2013-04-10 22:01:00,76.9,16.1,29.95,SE,136,0.0,0.0,10,0.00,CLR,,0.00,WeatherDisplay:10.37,2013-04-11 02:01:00,
2013-04-10 22:05:00,76.8,16.1,29.95,West,277,4.8,8.1,10,0.00,CLR,,0.00,WeatherDisplay:10.37,2013-04-11 02:05:00,
2013-04-10 22:06:00,77.1,16.3,29.95,West,277,0.4,3.5,10,0.00,CLR,,0.00,WeatherDisplay:10.37,2013-04-11 02:06:00,
2013-04-10 22:10:00,76.8,16.1,29.95,SE,134,5.1,8.1,10,0.00,CLR,,0.00,WeatherDisplay:10.37,2013-04-11 02:10:00,
2013-04-10 22:11:00,77.1,16.3,29.95,SE,130,1.6,6.9,10,0.00,CLR,,0.00,WeatherDisplay:10.37,2013-04-11 02:11:00,
2013-04-10 22:15:00,76.8,18.3,29.95,SSW,206,0.2,3.5,11,0.00,CLR,,0.00,WeatherDisplay:10.37,2013-04-11 02:15:00,
2013-04-10 22:16:00,76.9,18.3,29.95,SSW,206,0.0,0.0,11,0.00,CLR,,0.00,WeatherDisplay:10.37,2013-04-11 02:16:00,
2013-04-10 22:20:00,76.7,18.2,29.95,SSW,206,0.0,0.0,11,0.00,CLR,,0.00,WeatherDisplay:10.37,2013-04-11 02:20:00,
2013-04-10 22:21:00,76.7,18.2,29.95,SSW,206,0.0,0.0,11,0.00,CLR,,0.00,WeatherDisplay:10.37,2013-04-11 02:21:00,
2013-04-10 22:25:00,76.5,20.1,29.95,SSE,150,2.2,9.2,12,0.00,CLR,,0.00,WeatherDisplay:10.37,2013-04-11 02:25:00,
2013-04-10 22:27:00,76.3,17.9,29.95,SW,226,2.0,6.9,11,0.00,CLR,,0.00,WeatherDisplay:10.37,2013-04-11 02:27:00,
2013-04-10 22:30:00,76.6,18.1,29.95,WSW,239,1.9,6.9,11,0.00,CLR,,0.00,WeatherDisplay:10.37,2013-04-11 02:30:00,
2013-04-10 22:32:00,76.7,18.2,29.95,SW,220,0.1,4.6,11,0.00,CLR,,0.00,WeatherDisplay:10.37,2013-04-11 02:32:00,
2013-04-10 22:33:00,76.4,18.0,29.95,SW,220,0.0,0.0,11,0.00,CLR,,0.00,WeatherDisplay:10.37,2013-04-11 02:33:00,
2013-04-10 22:36:00,76.6,18.1,29.95,SSW,205,4.0,10.4,11,0.00,CLR,,0.00,WeatherDisplay:10.37,2013-04-11 02:36:00,
2013-04-10 22:37:00,76.8,18.3,29.95,South,184,0.8,8.1,11,0.00,CLR,,0.00,WeatherDisplay:10.37,2013-04-11 02:37:00,
2013-04-10 22:38:00,76.7,18.2,29.95,South,182,3.2,5.8,11,0.00,CLR,,0.00,WeatherDisplay:10.37,2013-04-11 02:38:00,
2013-04-10 22:41:00,76.7,18.2,29.95,SSW,209,0.0,4.6,11,0.00,CLR,,0.00,WeatherDisplay:10.37,2013-04-11 02:41:00,
2013-04-10 22:42:00,76.7,18.2,29.95,SSW,203,0.2,4.6,11,0.00,CLR,,0.00,WeatherDisplay:10.37,2013-04-11 02:42:00,
2013-04-10 22:43:00,76.4,18.0,29.95,SW,222,1.6,4.6,11,0.00,CLR,,0.00,WeatherDisplay:10.37,2013-04-11 02:43:00,
2013-04-10 22:46:00,76.8,18.3,29.95,SSE,151,1.5,4.6,11,0.00,CLR,,0.00,WeatherDisplay:10.37,2013-04-11 02:46:00,
2013-04-10 22:47:00,76.4,18.0,29.95,SSE,151,0.0,0.0,11,0.00,CLR,,0.00,WeatherDisplay:10.37,2013-04-11 02:47:00,
2013-04-10 22:48:00,76.3,17.9,29.95,SSE,151,0.0,0.0,11,0.00,CLR,,0.00,WeatherDisplay:10.37,2013-04-11 02:48:00,
2013-04-10 22:52:00,76.8,20.3,29.95,SSE,151,0.0,0.0,12,0.00,CLR,,0.00,WeatherDisplay:10.37,2013-04-11 02:52:00,
2013-04-10 22:53:00,76.9,20.4,29.95,SSE,151,0.0,0.0,12,0.00,CLR,,0.00,WeatherDisplay:10.37,2013-04-11 02:53:00,
2013-04-10 22:57:00,76.6,20.1,29.95,SSW,198,0.0,0.0,12,0.00,CLR,,0.00,WeatherDisplay:10.37,2013-04-11 02:57:00,
2013-04-10 22:58:00,76.9,20.4,29.95,SSW,198,0.0,0.0,12,0.00,CLR,,0.00,WeatherDisplay:10.37,2013-04-11 02:58:00,
2013-04-10 23:03:00,76.2,19.8,29.95,SSW,198,0.0,0.0,12,0.00,CLR,,0.00,WeatherDisplay:10.37,2013-04-11 03:03:00,
2013-04-10 23:04:00,76.3,19.9,29.95,SSW,198,0.0,0.0,12,0.00,CLR,,0.00,WeatherDisplay:10.37,2013-04-11 03:04:00,
2013-04-10 23:08:00,76.3,19.9,29.95,SE,134,0.0,3.5,12,0.00,CLR,,0.00,WeatherDisplay:10.37,2013-04-11 03:08:00,
2013-04-10 23:09:00,76.2,19.8,29.95,SE,134,0.0,0.0,12,0.00,CLR,,0.00,WeatherDisplay:10.37,2013-04-11 03:09:00,
2013-04-10 23:13:00,76.4,20.0,29.95,SSE,155,5.3,9.2,12,0.00,CLR,,0.00,WeatherDisplay:10.37,2013-04-11 03:13:00,
2013-04-10 23:14:00,75.9,21.5,29.95,SSW,192,0.8,8.1,13,0.00,CLR,,0.00,WeatherDisplay:10.37,2013-04-11 03:14:00,
2013-04-10 23:18:00,76.3,19.9,29.95,South,172,0.0,0.0,12,0.00,CLR,,0.00,WeatherDisplay:10.37,2013-04-11 03:18:00,
2013-04-10 23:19:00,76.3,19.9,29.95,South,172,0.0,0.0,12,0.00,CLR,,0.00,WeatherDisplay:10.37,2013-04-11 03:19:00,
2013-04-10 23:23:00,76.1,21.6,29.95,South,172,0.0,0.0,13,0.00,CLR,,0.00,WeatherDisplay:10.37,2013-04-11 03:23:00,
2013-04-10 23:24:00,75.9,21.5,29.95,South,172,0.0,0.0,13,0.00,CLR,,0.00,WeatherDisplay:10.37,2013-04-11 03:24:00,
2013-04-10 23:29:00,75.5,21.2,29.95,South,172,0.0,0.0,13,0.00,CLR,,0.00,WeatherDisplay:10.37,2013-04-11 03:29:00,
2013-04-10 23:33:00,74.7,27.0,29.95,South,172,0.0,0.0,17,0.00,CLR,,0.00,WeatherDisplay:10.37,2013-04-11 03:33:00,
2013-04-10 23:34:00,74.5,26.8,29.95,South,172,0.0,0.0,17,0.00,CLR,,0.00,WeatherDisplay:10.37,2013-04-11 03:34:00,
2013-04-10 23:35:00,74.4,26.7,29.95,South,172,0.0,0.0,17,0.00,CLR,,0.00,WeatherDisplay:10.37,2013-04-11 03:35:00,
2013-04-10 23:38:00,73.6,30.0,29.95,South,172,0.0,0.0,20,0.00,CLR,,0.00,WeatherDisplay:10.37,2013-04-11 03:38:00,
2013-04-10 23:39:00,73.4,31.1,29.95,South,172,0.0,0.0,21,0.00,CLR,,0.00,WeatherDisplay:10.37,2013-04-11 03:39:00,
2013-04-10 23:40:00,73.1,30.8,29.95,South,172,0.0,0.0,21,0.00,CLR,,0.00,WeatherDisplay:10.37,2013-04-11 03:40:00,
2013-04-10 23:44:00,72.6,31.5,29.95,South,172,0.0,0.0,22,0.00,CLR,,0.00,WeatherDisplay:10.37,2013-04-11 03:44:00,
2013-04-10 23:45:00,72.5,31.5,29.95,South,172,0.0,0.0,22,0.00,CLR,,0.00,WeatherDisplay:10.37,2013-04-11 03:45:00,
2013-04-10 23:49:00,72.0,33.2,29.95,East,79,0.5,0.0,24,0.00,CLR,,0.00,WeatherDisplay:10.37,2013-04-11 03:49:00,
2013-04-10 23:50:00,71.6,32.9,29.95,East,79,0.5,3.5,24,0.00,CLR,,0.00,WeatherDisplay:10.37,2013-04-11 03:50:00,
2013-04-10 23:54:00,71.6,32.9,29.95,East,79,0.0,0.0,24,0.00,CLR,,0.00,WeatherDisplay:10.37,2013-04-11 03:54:00,
2013-04-10 23:55:00,71.6,32.9,29.95,East,79,0.0,0.0,24,0.00,CLR,,0.00,WeatherDisplay:10.37,2013-04-11 03:55:00,
2013-04-10 23:59:00,71.4,32.7,29.95,East,79,0.0,0.0,24,0.00,CLR,,0.00,WeatherDisplay:10.37,2013-04-11 03:59:00,